SondeTracker

Meteorological Radiosondes Database

Operations

Sounding was ended - last measurement: 2022-12-07 01:28:59z

MAP
About Radiosonde

Number: U2420917

Launch Site: Camborne (GB)

Type: RS41

AUX: NO

Frequency: 403.30 MHz

Max Speed: 146 km/h at 33219 m

Average Speed: 40.78 km/h

Max Altitude: 33219 m

Average Ascent Speed: 5.22 m/s

Average Descent Speed: 18.80 m/s

Status: LOST

Status Changes
Launch Site Type AUX Frequency Status Finder Landing Point Description Changes made by
MHz LOST 0, 0 AUTO STATUS: Probably lost in the water [BOT]AUTO-STATUS - 2022-12-07 01:53:03z
APRS Statistics

Received Frames: 635

First Frame [UTC]: 2022-12-06 23:17:34z

Last Frame [UTC]: 2022-12-07 01:28:59z

Receivers: F4IPA, F4RTE-RS, KERNO2-14, M7CWL-14

Flight Time: 02:11:25 h

Distance From First Measurement: 77.56 km

Nearest City: Falmouth (GB) [61.22 km]

Nearest Hunter: Kernow [64.80 km]

Ground Altitude: -123 m

Distance from QTH: 0.00 km

APRS Data
Receiver Number Date/Time [UTC] φ λ Course [°] Speed [km/h] Altitude [m] Description
KERNO2-14U24209172022-12-07 01:28:5949.6588-4.68388167111633Clb=-9.4m/s t=-4.8C h=98.0% 403.30MHz Type=RS41-SG Details on http://radiosondy.info
KERNO2-14U24209172022-12-07 01:28:5349.6589-4.68382212111686Clb=-9.4m/s t=-2.4C h=57.1% 403.30MHz Type=RS41-SG TxOff=8h02m batt=2.6V Details on http://radiosondy.info
KERNO2-14U24209172022-12-07 01:28:4749.659-4.68364241131740Clb=-9.7m/s t=-2.2C h=47.1% 403.30MHz Type=RS41-SG Details on http://radiosondy.info
KERNO2-14U24209172022-12-07 01:28:4149.6591-4.68335251151797Clb=-9.4m/s t=-1.7C h=36.9% 403.30MHz Type=RS41-SG Details on http://radiosondy.info
KERNO2-14U24209172022-12-07 01:28:3549.6592-4.68303244171853Clb=-9.2m/s t=-1.9C h=36.8% 403.30MHz Type=RS41-SG batt=2.6V Details on http://radiosondy.info
KERNO2-14U24209172022-12-07 01:28:2949.6593-4.68269243171909Clb=-9.5m/s t=-2.0C h=35.2% 403.30MHz Type=RS41-SG Details on http://radiosondy.info
KERNO2-14U24209172022-12-07 01:28:2349.6594-4.68238241171966Clb=-9.1m/s t=-2.4C h=35.8% 403.30MHz Type=RS41-SG Details on http://radiosondy.info
KERNO2-14U24209172022-12-07 01:28:1749.6595-4.68208237152022Clb=-9.5m/s t=-2.9C h=36.6% 403.30MHz Type=RS41-SG batt=2.6V Details on http://radiosondy.info
KERNO2-14U24209172022-12-07 01:28:1149.6597-4.68181243112078Clb=-9.1m/s t=-3.3C h=36.4% 403.30MHz Type=RS41-SG Details on http://radiosondy.info
KERNO2-14U24209172022-12-07 01:28:0549.6598-4.68161220112134Clb=-9.1m/s t=-3.5C h=32.3% 403.30MHz Type=RS41-SG Details on http://radiosondy.info
KERNO2-14U24209172022-12-07 01:27:5949.6599-4.68148198112189Clb=-9.2m/s t=-3.7C h=34.6% 403.30MHz Type=RS41-SG TxOff=8h03m batt=2.6V Details on http://radiosondy.info
KERNO2-14U24209172022-12-07 01:27:5349.66-4.6814197112245Clb=-8.9m/s t=-3.9C h=34.6% 403.30MHz Type=RS41-SG Details on http://radiosondy.info
KERNO2-14U24209172022-12-07 01:27:4749.6602-4.6813195152300Clb=-9.1m/s t=-4.0C h=32.2% 403.30MHz Type=RS41-SG Details on http://radiosondy.info
KERNO2-14U24209172022-12-07 01:27:4149.6604-4.68118198152356Clb=-9.5m/s t=-4.1C h=27.8% 403.30MHz Type=RS41-SG batt=2.6V Details on http://radiosondy.info
KERNO2-14U24209172022-12-07 01:27:3549.6606-4.68104204172411Clb=-9.3m/s t=-4.6C h=27.3% 403.30MHz Type=RS41-SG Details on http://radiosondy.info
KERNO2-14U24209172022-12-07 01:27:2949.6609-4.68086213192467Clb=-9.1m/s t=-4.8C h=22.9% 403.30MHz Type=RS41-SG Details on http://radiosondy.info
KERNO2-14U24209172022-12-07 01:27:2349.6611-4.68067206172522Clb=-8.7m/s t=-5.3C h=26.7% 403.30MHz Type=RS41-SG batt=2.6V Details on http://radiosondy.info
KERNO2-14U24209172022-12-07 01:27:1749.6613-4.68047212172577Clb=-8.9m/s t=-5.7C h=25.1% 403.30MHz Type=RS41-SG Details on http://radiosondy.info
KERNO2-14U24209172022-12-07 01:27:1149.6616-4.6803205192632Clb=-9.3m/s t=-5.9C h=20.3% 403.30MHz Type=RS41-SG Details on http://radiosondy.info
KERNO2-14U24209172022-12-07 01:27:0549.6618-4.68014198192688Clb=-9.6m/s t=-6.3C h=31.5% 403.30MHz Type=RS41-SG TxOff=8h04m batt=2.5V Details on http://radiosondy.info
KERNO2-14U24209172022-12-07 01:26:5949.6621-4.68002202192743Clb=-8.9m/s t=-6.7C h=30.2% 403.30MHz Type=RS41-SG Details on http://radiosondy.info
KERNO2-14U24209172022-12-07 01:26:5349.6623-4.67992196172799Clb=-9.3m/s t=-7.1C h=26.9% 403.30MHz Type=RS41-SG Details on http://radiosondy.info
KERNO2-14U24209172022-12-07 01:26:4749.6626-4.67984189152855Clb=-8.8m/s t=-7.5C h=26.0% 403.30MHz Type=RS41-SG batt=2.6V Details on http://radiosondy.info
KERNO2-14U24209172022-12-07 01:26:4149.6628-4.67983169152911Clb=-9.1m/s t=-7.6C h=25.9% 403.30MHz Type=RS41-SG Details on http://radiosondy.info
KERNO2-14U24209172022-12-07 01:26:3549.663-4.6799166172967Clb=-9.5m/s t=-7.6C h=25.4% 403.30MHz Type=RS41-SG Details on http://radiosondy.info
KERNO2-14U24209172022-12-07 01:26:2949.6632-4.68001168153024Clb=-9.1m/s t=-7.9C h=23.3% 403.30MHz Type=RS41-SG batt=2.6V Details on http://radiosondy.info
KERNO2-14U24209172022-12-07 01:26:1349.6638-4.68041152193172Clb=-9.4m/s t=-8.2C h=14.4% 403.30MHz Type=RS41-SG Details on http://radiosondy.info
KERNO2-14U24209172022-12-07 01:25:5749.6644-4.68107153203322Clb=-9.6m/s t=-9.2C h=13.4% 403.30MHz Type=RS41-SG Details on http://radiosondy.info
KERNO2-14U24209172022-12-07 01:25:4149.6651-4.68169155243473Clb=-9.2m/s t=-10.4C h=11.8% 403.30MHz Type=RS41-SG TxOff=8h05m batt=2.6V Details on http://radiosondy.info
KERNO2-14U24209172022-12-07 01:25:2549.666-4.68241149263622Clb=-9.1m/s t=-11.4C h=14.9% 403.30MHz Type=RS41-SG Details on http://radiosondy.info
KERNO2-14U24209172022-12-07 01:25:0949.6669-4.68308150263777Clb=-9.8m/s t=-12.4C h=15.3% 403.30MHz Type=RS41-SG Details on http://radiosondy.info
KERNO2-14U24209172022-12-07 01:24:5349.6678-4.68386146223932Clb=-9.8m/s t=-13.3C h=7.4% 403.30MHz Type=RS41-SG batt=2.6V Details on http://radiosondy.info
KERNO2-14U24209172022-12-07 01:24:3749.6686-4.68458147194089Clb=-10.1m/s t=-13.9C h=16.5% 403.30MHz Type=RS41-SG Details on http://radiosondy.info
KERNO2-14U24209172022-12-07 01:24:2149.6693-4.68502158224246Clb=-10.5m/s t=-14.6C h=5.3% 403.30MHz Type=RS41-SG Details on http://radiosondy.info
KERNO2-14U24209172022-12-07 01:24:0549.6702-4.68531172264405Clb=-10.8m/s t=-16.0C h=6.7% 403.30MHz Type=RS41-SG batt=2.5V Details on http://radiosondy.info
F4RTE-RSU24209172022-12-07 01:24:0049.6706-4.68542174224475Clb=-10.2m/s t=-16.7C h=7.0% p=-1.0hPa 403.301 MHz Type=RS41-SG Radiosonde auto_rx v1.5.8
KERNO2-14U24209172022-12-07 01:23:4949.6711-4.68555176244566Clb=-10.6m/s t=-17.5C h=7.9% 403.30MHz Type=RS41-SG Details on http://radiosondy.info
KERNO2-14U24209172022-12-07 01:23:3349.672-4.68576170244737Clb=-11.4m/s t=-18.6C h=9.4% 403.30MHz Type=RS41-SG Details on http://radiosondy.info
F4RTE-RSU24209172022-12-07 01:23:3049.6722-4.68581168224780Clb=-11.1m/s t=-19.0C h=8.7% p=-1.0hPa 403.301 MHz Type=RS41-SG Radiosonde auto_rx v1.5.8
KERNO2-14U24209172022-12-07 01:23:1749.6729-4.68604160244907Clb=-11.0m/s t=-20.1C h=26.9% 403.30MHz Type=RS41-SG TxOff=8h08m batt=2.5V Details on http://radiosondy.info
KERNO2-14U24209172022-12-07 01:23:0249.6738-4.68645169245076Clb=-11.6m/s t=-21.5C h=20.2% 403.30MHz Type=RS41-SG Details on http://radiosondy.info
F4RTE-RSU24209172022-12-07 01:23:0049.6739-4.6865169265097Clb=-11.5m/s t=-21.7C h=-1.0% p=-1.0hPa 403.301 MHz Type=RS41-SG Radiosonde auto_rx v1.5.8
KERNO2-14U24209172022-12-07 01:22:4549.6748-4.68663178265249Clb=-11.8m/s t=-23.0C h=10.8% 403.30MHz Type=RS41-SG Details on http://radiosondy.info
F4RTE-RSU24209172022-12-07 01:22:3049.6758-4.68689168245430Clb=-11.6m/s t=-24.7C h=-1.0% p=-1.0hPa 403.301 MHz Type=RS41-SG Radiosonde auto_rx v1.5.8
KERNO2-14U24209172022-12-07 01:22:2949.6758-4.68689169225430Clb=-11.5m/s t=-24.6C h=23.2% 403.30MHz Type=RS41-SG batt=2.4V Details on http://radiosondy.info
KERNO2-14U24209172022-12-07 01:22:1349.6765-4.68735158265606Clb=-11.7m/s t=-25.5C h=21.0% 403.30MHz Type=RS41-SG Details on http://radiosondy.info
KERNO2-14U24209172022-12-07 01:21:5749.6774-4.68817152285782Clb=-12.5m/s t=-26.9C h=28.9% 403.30MHz Type=RS41-SG Details on http://radiosondy.info
KERNO2-14U24209172022-12-07 01:21:4149.6783-4.68914143265997Clb=-13.2m/s t=-28.5C h=33.1% 403.30MHz Type=RS41-SG batt=2.4V Details on http://radiosondy.info
KERNO2-14U24209172022-12-07 01:21:2549.6792-4.69005143286173Clb=-11.6m/s t=-30.0C h=41.9% 403.30MHz Type=RS41-SG Details on http://radiosondy.info
KERNO2-14U24209172022-12-07 01:21:0949.6801-4.69097145306343Clb=-11.0m/s t=-31.2C h=32.8% 403.30MHz Type=RS41-SG Details on http://radiosondy.info
KERNO2-14U24209172022-12-07 01:20:5349.6811-4.69184157286517Clb=-11.9m/s t=-32.6C h=38.6% 403.30MHz Type=RS41-SG TxOff=8h10m batt=2.4V Details on http://radiosondy.info
KERNO2-14U24209172022-12-07 01:20:3749.6821-4.69246154286712Clb=-13.4m/s t=-33.6C h=24.3% 403.30MHz Type=RS41-SG Details on http://radiosondy.info
F4RTE-RSU24209172022-12-07 01:20:3049.6826-4.69281151286815Clb=-12.3m/s t=-273.0C h=-1.0% p=-1.0hPa 403.301 MHz Type=RS41-SG Radiosonde auto_rx v1.5.8
KERNO2-14U24209172022-12-07 01:20:2149.683-4.69319145286908Clb=-13.5m/s t=-35.1C h=23.9% 403.30MHz Type=RS41-SG Details on http://radiosondy.info
KERNO2-14U24209172022-12-07 01:20:0549.6839-4.69432134317120Clb=-14.5m/s t=-36.8C h=12.2% 403.30MHz Type=RS41-SG batt=2.4V Details on http://radiosondy.info
F4RTE-RSU24209172022-12-07 01:20:0049.6842-4.69486136337200Clb=-14.0m/s t=-273.0C h=-1.0% p=-1.0hPa 403.301 MHz Type=RS41 Radiosonde auto_rx v1.5.8
KERNO2-14U24209172022-12-07 01:19:4949.6847-4.6958129337332Clb=-13.6m/s t=-38.0C h=14.2% 403.30MHz Type=RS41-SG Details on http://radiosondy.info
KERNO2-14U24209172022-12-07 01:19:3149.6854-4.69789114397568Clb=-14.2m/s t=-40.0C h=30.9% 403.30MHz Type=RS41-SG Details on http://radiosondy.info
KERNO2-14U24209172022-12-07 01:19:1549.6861-4.69997121357784Clb=-14.3m/s t=-41.6C h=15.0% 403.30MHz Type=RS41-SG batt=2.5V Details on http://radiosondy.info
KERNO2-14U24209172022-12-07 01:18:5949.6869-4.70174126398001Clb=-14.2m/s t=-43.0C h=12.9% 403.30MHz Type=RS41-SG Details on http://radiosondy.info
KERNO2-14U24209172022-12-07 01:18:4349.6877-4.70387118468221Clb=-14.0m/s t=-44.5C h=26.6% 403.30MHz Type=RS41-SG Details on http://radiosondy.info
KERNO2-14U24209172022-12-07 01:18:2749.6886-4.70637121438442Clb=-14.5m/s t=-46.3C h=16.8% 403.30MHz Type=RS41-SG TxOff=8h13m batt=2.4V Details on http://radiosondy.info
KERNO2-14U24209172022-12-07 01:18:1149.6895-4.70853133398671Clb=-15.3m/s t=-47.7C h=13.3% 403.30MHz Type=RS41-SG Details on http://radiosondy.info
KERNO2-14U24209172022-12-07 01:17:5549.6904-4.71034136358907Clb=-15.1m/s t=-48.0C h=10.8% 403.30MHz Type=RS41-SG Details on http://radiosondy.info
KERNO2-14U24209172022-12-07 01:17:3949.6915-4.71174136319146Clb=-15.0m/s t=-49.5C h=11.7% 403.30MHz Type=RS41-SG batt=2.5V Details on http://radiosondy.info
KERNO2-14U24209172022-12-07 01:17:2449.6924-4.71302145319387Clb=-15.8m/s t=-51.0C h=12.5% 403.30MHz Type=RS41-SG Details on http://radiosondy.info
KERNO2-14U24209172022-12-07 01:17:0749.6934-4.71412146319631Clb=-15.7m/s t=-52.7C h=13.3% 403.30MHz Type=RS41-SG Details on http://radiosondy.info
KERNO2-14U24209172022-12-07 01:16:5149.6944-4.71527153309880Clb=-15.7m/s t=-53.3C h=12.2% 403.30MHz Type=RS41-SG batt=2.5V Details on http://radiosondy.info
KERNO2-14U24209172022-12-07 01:16:3549.6953-4.716371352810128Clb=-16.3m/s t=-54.2C h=11.8% 403.30MHz Type=RS41-SG Details on http://radiosondy.info
KERNO2-14U24209172022-12-07 01:16:1949.6958-4.717861212610386Clb=-16.6m/s t=-54.7C h=10.6% 403.30MHz Type=RS41-SG Details on http://radiosondy.info
KERNO2-14U24209172022-12-07 01:16:0449.6964-4.719171332410646Clb=-16.8m/s t=-55.0C h=9.7% 403.30MHz Type=RS41-SG TxOff=8h15m batt=2.4V Details on http://radiosondy.info
KERNO2-14U24209172022-12-07 01:15:4949.6972-4.719981492610914Clb=-17.2m/s t=-56.5C h=10.1% 403.30MHz Type=RS41-SG Details on http://radiosondy.info
KERNO2-14U24209172022-12-07 01:15:3749.6979-4.721061323311184Clb=-17.5m/s t=-57.7C h=9.8% 403.30MHz Type=RS41-SG Details on http://radiosondy.info
KERNO2-14U24209172022-12-07 01:15:2349.6988-4.72271273711458Clb=-17.4m/s t=-57.3C h=7.8% 403.30MHz Type=RS41-SG batt=2.4V Details on http://radiosondy.info
KERNO2-14U24209172022-12-07 01:15:1049.6995-4.724651123911737Clb=-18.2m/s t=-56.1C h=6.1% 403.30MHz Type=RS41-SG Details on http://radiosondy.info
KERNO2-14U24209172022-12-07 01:14:5649.7004-4.726711314312024Clb=-18.4m/s t=-56.8C h=5.7% 403.30MHz Type=RS41-SG Details on http://radiosondy.info
KERNO2-14U24209172022-12-07 01:14:4349.7013-4.728841244612307Clb=-18.4m/s t=-57.2C h=5.2% 403.30MHz Type=RS41-SG batt=2.5V Details on http://radiosondy.info
KERNO2-14U24209172022-12-07 01:14:3049.7024-4.731031383912596Clb=-18.8m/s t=-57.3C h=5.2% 403.30MHz Type=RS41-SG Details on http://radiosondy.info
KERNO2-14U24209172022-12-07 01:14:1649.7035-4.732611273512888Clb=-19.1m/s t=-57.3C h=5.1% 403.30MHz Type=RS41-SG Details on http://radiosondy.info
KERNO2-14U24209172022-12-07 01:14:0149.7042-4.734491203513178Clb=-17.4m/s t=-56.7C h=4.8% 403.30MHz Type=RS41-SG TxOff=8h17m batt=2.4V Details on http://radiosondy.info
KERNO2-14U24209172022-12-07 01:13:4749.7048-4.736321134313455Clb=-17.8m/s t=-57.1C h=5.0% 403.30MHz Type=RS41-SG Details on http://radiosondy.info
KERNO2-14U24209172022-12-07 01:13:3349.7055-4.738671233913733Clb=-17.5m/s t=-56.6C h=4.6% 403.30MHz Type=RS41-SG Details on http://radiosondy.info
KERNO2-14U24209172022-12-07 01:13:1749.7066-4.740291412814021Clb=-19.1m/s t=-57.3C h=4.7% 403.30MHz Type=RS41-SG batt=2.4V Details on http://radiosondy.info
KERNO2-14U24209172022-12-07 01:13:0249.7072-4.741561293114319Clb=-19.5m/s t=-57.8C h=4.7% 403.30MHz Type=RS41-SG Details on http://radiosondy.info
KERNO2-14U24209172022-12-07 01:12:4649.7081-4.743011212614631Clb=-19.4m/s t=-58.4C h=4.9% 403.30MHz Type=RS41-SG Details on http://radiosondy.info
KERNO2-14U24209172022-12-07 01:12:3249.7086-4.744361182414939Clb=-19.9m/s t=-58.3C h=4.9% 403.30MHz Type=RS41-SG batt=2.5V Details on http://radiosondy.info
KERNO2-14U24209172022-12-07 01:12:1549.709-4.745651042415256Clb=-20.3m/s t=-58.1C h=4.8% 403.30MHz Type=RS41-SG Details on http://radiosondy.info
KERNO2-14U24209172022-12-07 01:12:0049.7095-4.746981322815573Clb=-19.1m/s t=-58.1C h=4.8% 403.30MHz Type=RS41-SG Details on http://radiosondy.info
KERNO2-14U24209172022-12-07 01:11:4349.7104-4.747951621915854Clb=-18.3m/s t=-57.3C h=4.5% 403.30MHz Type=RS41-SG TxOff=8h20m batt=2.4V Details on http://radiosondy.info
KERNO2-14U24209172022-12-07 01:11:2849.711-4.748471172416155Clb=-17.2m/s t=-58.2C h=4.9% 403.30MHz Type=RS41-SG Details on http://radiosondy.info
F4IPAU24209172022-12-07 01:11:1349.7113-4.749671293016423Clb=-18.7m/s t=-57.4C h=-1.0% p=-1.0hPa 403.300 MHz Type=RS41-SG ser=U2420917 Radiosonde
KERNO2-14U24209172022-12-07 01:11:1249.7114-4.749761353716441Clb=-16.5m/s t=-57.3C h=4.3% 403.30MHz Type=RS41-SG Details on http://radiosondy.info
KERNO2-14U24209172022-12-07 01:10:5649.7126-4.751051623716659Clb=-17.6m/s t=-57.9C h=4.4% 403.30MHz Type=RS41-SG batt=2.5V Details on http://radiosondy.info
F4IPAU24209172022-12-07 01:10:4349.7138-4.751491663516877Clb=-16.2m/s t=-58.9C h=-1.0% p=-1.0hPa 403.300 MHz Type=RS41-SG ser=U2420917 Radiosonde
KERNO2-14U24209172022-12-07 01:10:4149.714-4.751551732216908Clb=-15.9m/s t=-58.8C h=4.8% 403.30MHz Type=RS41-SG Details on http://radiosondy.info
KERNO2-14U24209172022-12-07 01:10:2549.7148-4.751881482817179Clb=-18.6m/s t=-58.5C h=4.5% 403.30MHz Type=RS41-SG Details on http://radiosondy.info
F4IPAU24209172022-12-07 01:10:1249.7155-4.752561462817409Clb=-17.1m/s t=-59.7C h=-1.0% p=-1.0hPa 403.300 MHz Type=RS41 ser=U2420917 Radiosonde
KERNO2-14U24209172022-12-07 01:10:0949.7158-4.752781463517459Clb=-17.2m/s t=-59.9C h=4.9% 403.30MHz Type=RS41-SG batt=2.4V Details on http://radiosondy.info
KERNO2-14U24209172022-12-07 01:09:5249.7171-4.753261881317766Clb=-20.1m/s t=-60.2C h=4.9% 403.30MHz Type=RS41-SG Details on http://radiosondy.info
M7CWL-14U24209172022-12-07 01:09:5049.7171-4.753251871317786Clb=-20.0m/s t=-60.3C h=4.9% 403.30MHz Type=RS41-SG Details on http://radiosondy.info
M7CWL-14U24209172022-12-07 01:09:3549.7175-4.75336561918102Clb=-21.5m/s t=-60.2C h=4.9% 403.30MHz Type=RS41-SG batt=2.4V Details on http://radiosondy.info
KERNO2-14U24209172022-12-07 01:09:3349.7174-4.75344632018147Clb=-22.0m/s t=-60.3C h=4.9% 403.30MHz Type=RS41-SG Details on http://radiosondy.info
M7CWL-14U24209172022-12-07 01:09:1949.7176-4.754261463718451Clb=-23.6m/s t=-60.5C h=5.2% 403.30MHz Type=RS41-SG Details on http://radiosondy.info
KERNO2-14U24209172022-12-07 01:09:1649.7178-4.754441533518520Clb=-23.2m/s t=-60.6C h=5.1% 403.30MHz Type=RS41-SG TxOff=8h22m batt=2.4V Details on http://radiosondy.info
F4IPAU24209172022-12-07 01:09:0649.7187-4.754861733318742Clb=-25.2m/s t=-59.1C h=1.2% p=-1.0hPa 403.300 MHz Type=RS41-SG ser=U2420917 Radiosonde
M7CWL-14U24209172022-12-07 01:09:0349.7189-4.754891741718819Clb=-26.9m/s t=-59.2C h=4.5% 403.30MHz Type=RS41-SG Details on http://radiosondy.info
KERNO2-14U24209172022-12-07 01:08:5949.7192-4.754981632618930Clb=-28.8m/s t=-59.8C h=4.8% 403.30MHz Type=RS41-SG Details on http://radiosondy.info
KERNO2-14U24209172022-12-07 01:08:4249.7201-4.755531662219366Clb=-25.2m/s t=-59.7C h=4.8% 403.30MHz Type=RS41-SG Details on http://radiosondy.info
F4IPAU24209172022-12-07 01:08:3449.7207-4.755611611719607Clb=-27.2m/s t=-59.8C h=1.2% p=-1.0hPa 403.300 MHz Type=RS41-SG ser=U2420917 Radiosonde
KERNO2-14U24209172022-12-07 01:08:2649.721-4.755881322219789Clb=-26.5m/s t=-59.8C h=4.8% 403.30MHz Type=RS41-SG batt=2.4V Details on http://radiosondy.info
KERNO2-14U24209172022-12-07 01:08:0949.7218-4.756361722620208Clb=-28.8m/s t=-60.1C h=4.7% 403.30MHz Type=RS41-SG Details on http://radiosondy.info
F4IPAU24209172022-12-07 01:08:0249.7222-4.75651672420399Clb=-27.5m/s t=-60.0C h=-1.0% p=-1.0hPa 403.300 MHz Type=RS41-SG ser=U2420917 Radiosonde
KERNO2-14U24209172022-12-07 01:07:5249.7228-4.756751623520642Clb=-28.8m/s t=-60.7C h=4.9% 403.30MHz Type=RS41-SG Details on http://radiosondy.info
KERNO2-14U24209172022-12-07 01:07:3549.7241-4.757621533721086Clb=-28.2m/s t=-60.1C h=4.5% 403.30MHz Type=RS41-SG batt=2.5V Details on http://radiosondy.info
F4IPAU24209172022-12-07 01:07:2949.7246-4.757931673321272Clb=-32.0m/s t=-60.8C h=-1.0% p=-1.0hPa 403.300 MHz Type=RS41-SG ser=U2420917 Radiosonde
KERNO2-14U24209172022-12-07 01:07:1749.7255-4.758071912821567Clb=-30.1m/s t=-61.7C h=5.0% 403.30MHz Type=RS41-SG Details on http://radiosondy.info
KERNO2-14U24209172022-12-07 01:06:5849.7265-4.75752191322043Clb=-30.2m/s t=-62.8C h=5.1% 403.30MHz Type=RS41-SG Details on http://radiosondy.info
F4IPAU24209172022-12-07 01:06:5449.7267-4.757341821322224Clb=-31.2m/s t=-273.0C h=-1.0% p=-1.0hPa 403.300 MHz Type=RS41-SG ser=U2420917 Radiosonde
KERNO2-14U24209172022-12-07 01:06:4149.727-4.757391911522528Clb=-29.7m/s t=-63.6C h=5.3% 403.30MHz Type=RS41-SG TxOff=8h25m batt=2.4V Details on http://radiosondy.info
M7CWL-14U24209172022-12-07 01:06:3449.7272-4.757431541722707Clb=-30.0m/s t=-64.4C h=5.8% 403.30MHz Type=RS41-SG TxOff=8h25m batt=2.5V Details on http://radiosondy.info
KERNO2-14U24209172022-12-07 01:06:2349.7275-4.757841253023026Clb=-31.9m/s t=-64.9C h=6.1% 403.30MHz Type=RS41-SG Details on http://radiosondy.info
F4IPAU24209172022-12-07 01:06:1949.7276-4.758071281723154Clb=-32.3m/s t=-273.0C h=-1.0% p=-1.0hPa 403.300 MHz Type=RS41-SG ser=U2420917 Radiosonde
M7CWL-14U24209172022-12-07 01:06:1849.7276-4.758131274123186Clb=-31.7m/s t=-64.6C h=5.8% 403.30MHz Type=RS41-SG Details on http://radiosondy.info
KERNO2-14U24209172022-12-07 01:06:0549.7284-4.759231385223547Clb=-29.7m/s t=-64.6C h=5.7% 403.30MHz Type=RS41-SG Details on http://radiosondy.info
M7CWL-14U24209172022-12-07 01:06:0149.7288-4.759761435423669Clb=-30.2m/s t=-64.2C h=5.5% 403.30MHz Type=RS41-SG Details on http://radiosondy.info
KERNO2-14U24209172022-12-07 01:05:4849.7302-4.760781584824048Clb=-30.3m/s t=-65.1C h=6.1% 403.30MHz Type=RS41-SG batt=2.5V Details on http://radiosondy.info
F4IPAU24209172022-12-07 01:05:4549.7306-4.761041525224142Clb=-33.0m/s t=-273.0C h=-1.0% p=-1.0hPa 403.300 MHz Type=RS41 ser=U2420917 Radiosonde
M7CWL-14U24209172022-12-07 01:05:4449.7306-4.761041535424142Clb=-32.9m/s t=-65.0C h=6.1% 403.30MHz Type=RS41-SG batt=2.5V Details on http://radiosondy.info
KERNO2-14U24209172022-12-07 01:05:2649.7321-4.7631376324706Clb=-33.5m/s t=-64.6C h=5.7% 403.30MHz Type=RS41-SG Details on http://radiosondy.info
KERNO2-14U24209172022-12-07 01:05:0849.7342-4.765161617025240Clb=-32.3m/s t=-64.5C h=5.3% 403.30MHz Type=RS41-SG Details on http://radiosondy.info
KERNO2-14U24209172022-12-07 01:04:5149.7369-4.766131695425776Clb=-32.3m/s t=-65.7C h=5.8% 403.30MHz Type=RS41-SG batt=2.5V Details on http://radiosondy.info
F4IPAU24209172022-12-07 01:04:3749.7386-4.767181534826228Clb=-34.6m/s t=-273.0C h=-1.0% p=-1.0hPa 403.300 MHz Type=RS41 ser=U2420917 Radiosonde
KERNO2-14U24209172022-12-07 01:04:3349.7388-4.767361554626296Clb=-32.2m/s t=-66.3C h=6.0% 403.30MHz Type=RS41-SG Details on http://radiosondy.info
KERNO2-14U24209172022-12-07 01:04:1549.7402-4.769151365926825Clb=-35.9m/s t=-66.6C h=6.1% 403.30MHz Type=RS41-SG Details on http://radiosondy.info
KERNO2-14U24209172022-12-07 01:03:5749.7421-4.771461507427402Clb=-38.8m/s t=-67.3C h=6.4% 403.30MHz Type=RS41-SG TxOff=8h27m batt=2.6V Details on http://radiosondy.info
KERNO2-14U24209172022-12-07 01:03:4149.7447-4.774041496928006Clb=-36.3m/s t=-67.9C h=7.1% 403.30MHz Type=RS41-SG Details on http://radiosondy.info
KERNO2-14U24209172022-12-07 01:03:2549.7468-4.776631367228566Clb=-35.9m/s t=-66.3C h=6.6% 403.30MHz Type=RS41-SG Details on http://radiosondy.info
M7CWL-14U24209172022-12-07 01:03:1349.7479-4.779381187029011Clb=-36.3m/s t=-64.2C h=5.1% 403.30MHz Type=RS41-SG Details on http://radiosondy.info
KERNO2-14U24209172022-12-07 01:03:0949.7482-4.780341207029161Clb=-38.3m/s t=-64.3C h=5.0% 403.30MHz Type=RS41-SG batt=2.5V Details on http://radiosondy.info
M7CWL-14U24209172022-12-07 01:02:5749.7495-4.782821338929600Clb=-37.1m/s t=-66.0C h=5.7% 403.30MHz Type=RS41-SG Details on http://radiosondy.info
KERNO2-14U24209172022-12-07 01:02:5349.75-4.7837512710029759Clb=-41.2m/s t=-66.0C h=5.6% 403.30MHz Type=RS41-SG Details on http://radiosondy.info
M7CWL-14U24209172022-12-07 01:02:4249.7515-4.7869512313130207Clb=-43.0m/s t=-67.5C h=6.4% 403.30MHz Type=RS41-SG batt=2.5V Details on http://radiosondy.info
KERNO2-14U24209172022-12-07 01:02:3749.7523-4.7889712411730410Clb=-41.2m/s t=-68.3C h=7.3% 403.30MHz Type=RS41-SG Details on http://radiosondy.info
KERNO2-14U24209172022-12-07 01:02:2149.755-4.7947912811331080Clb=-43.9m/s t=-67.0C h=7.0% 403.30MHz Type=RS41-SG batt=2.5V Details on http://radiosondy.info
KERNO2-14U24209172022-12-07 01:02:0549.7581-4.7997413710631691Clb=-37.0m/s t=-65.2C h=5.4% 403.30MHz Type=RS41-SG Details on http://radiosondy.info
KERNO2-14U24209172022-12-07 01:01:4949.7606-4.8048411912032218Clb=-32.9m/s t=-66.0C h=5.8% 403.30MHz Type=RS41-SG Details on http://radiosondy.info
KERNO2-14U24209172022-12-07 01:01:3349.7627-4.8115311614132706Clb=-26.1m/s t=-67.0C h=6.5% 403.30MHz Type=RS41-SG TxPastBurst=8h30m batt=2.5V Details on http://radiosondy.info
KERNO2-14U24209172022-12-07 01:01:1849.7648-4.8190112014333000Clb=-25.6m/s t=-65.7C h=6.6% 403.30MHz Type=RS41-SG Details on http://radiosondy.info
KERNO2-14U24209172022-12-07 01:00:5949.7679-4.8284811814633219Clb=7.0m/s t=-63.9C h=5.3% 403.30MHz Type=RS41-SG Details on http://radiosondy.info
KERNO2-14U24209172022-12-07 01:00:5449.7701-4.8370311014333127Clb=4.8m/s t=-64.3C h=5.2% 403.30MHz Type=RS41-SG batt=2.5V Details on http://radiosondy.info
KERNO2-14U24209172022-12-07 01:00:5349.7722-4.84510913533036Clb=5.3m/s t=-65.6C h=5.5% 403.30MHz Type=RS41-SG Details on http://radiosondy.info
KERNO2-14U24209172022-12-07 01:00:5249.7758-4.8606811914332855Clb=4.6m/s t=-66.6C h=6.0% 403.30MHz Type=RS41-SG batt=2.5V Details on http://radiosondy.info
F4IPAU24209172022-12-07 01:00:5149.7761-4.8616211814432843Clb=6.6m/s t=-66.6C h=1.2% p=-1.0hPa 403.300 MHz Type=RS41-SG ser=U2420917 Radiosonde
KERNO2-14U24209172022-12-07 01:00:5049.7803-4.8766211613132680Clb=4.9m/s t=-67.0C h=6.2% 403.30MHz Type=RS41-SG Details on http://radiosondy.info
KERNO2-14U24209172022-12-07 01:00:4949.7844-4.8902612011932509Clb=5.5m/s t=-67.1C h=6.2% 403.30MHz Type=RS41-SG Details on http://radiosondy.info
F4IPAU24209172022-12-07 01:00:4849.7846-4.8906112210932503Clb=5.7m/s t=-67.1C h=1.3% p=-1.0hPa 403.300 MHz Type=RS41-SG ser=U2420917 Radiosonde
F4IPAU24209172022-12-07 01:00:4649.7888-4.9023711912032334Clb=7.0m/s t=-66.5C h=1.2% p=-1.0hPa 403.300 MHz Type=RS41-SG ser=U2420917 Radiosonde
KERNO2-14U24209172022-12-07 01:00:4249.791-4.9082612410732244Clb=6.2m/s t=-66.2C h=5.9% 403.30MHz Type=RS41-SG Details on http://radiosondy.info
F4IPAU24209172022-12-07 01:00:3849.7933-4.9135513312832153Clb=6.6m/s t=-66.6C h=1.3% p=-1.0hPa 403.300 MHz Type=RS41-SG ser=U2420917 Radiosonde
KERNO2-14U24209172022-12-07 01:00:3749.7937-4.9142913210932144Clb=3.3m/s t=-66.5C h=6.2% 403.30MHz Type=RS41-SG Details on http://radiosondy.info
KERNO2-14U24209172022-12-07 01:00:3449.7961-4.9190913210232057Clb=4.9m/s t=-66.4C h=6.1% 403.30MHz Type=RS41-SG batt=2.6V Details on http://radiosondy.info
M7CWL-14U24209172022-12-07 01:00:3249.7973-4.9216113410232011Clb=7.2m/s t=-66.5C h=6.3% 403.30MHz Type=RS41-SG Details on http://radiosondy.info
F4IPAU24209172022-12-07 01:00:3149.7981-4.9228712810731984Clb=8.1m/s t=-66.4C h=1.3% p=-1.0hPa 403.300 MHz Type=RS41-SG ser=U2420917 Radiosonde
KERNO2-14U24209172022-12-07 01:00:3049.7986-4.9239912510731963Clb=4.4m/s t=-66.3C h=6.1% 403.30MHz Type=RS41-SG Details on http://radiosondy.info
M7CWL-14U24209172022-12-07 01:00:2849.7999-4.9258414311131922Clb=5.6m/s t=-66.2C h=6.2% 403.30MHz Type=RS41-SG batt=2.5V Details on http://radiosondy.info
KERNO2-14U24209172022-12-07 01:00:2349.8017-4.9285114511331865Clb=5.8m/s t=-65.9C h=6.0% 403.30MHz Type=RS41-SG Details on http://radiosondy.info
M7CWL-14U24209172022-12-07 01:00:2149.803-4.9301513911131827Clb=5.3m/s t=-65.6C h=6.0% 403.30MHz Type=RS41-SG Details on http://radiosondy.info
F4IPAU24209172022-12-07 01:00:2049.8109-4.940313711331594Clb=6.0m/s t=-64.8C h=1.1% p=-1.0hPa 403.300 MHz Type=RS41-SG ser=U2420917 Radiosonde
KERNO2-14U24209172022-12-07 01:00:1949.8153-4.9467113211731467Clb=6.7m/s t=-64.8C h=5.5% 403.30MHz Type=RS41-SG batt=2.5V Details on http://radiosondy.info
KERNO2-14U24209172022-12-07 01:00:1849.8184-4.9520212812431376Clb=7.1m/s t=-65.1C h=5.5% 403.30MHz Type=RS41-SG Details on http://radiosondy.info
KERNO2-14U24209172022-12-07 01:00:1049.8215-4.9580813112431284Clb=5.6m/s t=-65.7C h=5.4% 403.30MHz Type=RS41-SG Details on http://radiosondy.info
F4IPAU24209172022-12-07 01:00:0549.8232-4.9616712511331235Clb=7.0m/s t=-66.6C h=1.2% p=-1.0hPa 403.300 MHz Type=RS41-SG ser=U2420917 Radiosonde
KERNO2-14U24209172022-12-07 00:59:5649.8243-4.9642711912631196Clb=4.6m/s t=-67.3C h=6.2% 403.30MHz Type=RS41-SG batt=2.6V Details on http://radiosondy.info
KERNO2-14U24209172022-12-07 00:59:3649.8272-4.9704712112031110Clb=5.3m/s t=-68.2C h=6.8% 403.30MHz Type=RS41-SG Details on http://radiosondy.info
F4IPAU24209172022-12-07 00:59:2649.8285-4.9735813111331066Clb=5.3m/s t=-68.2C h=1.4% p=-1.0hPa 403.300 MHz Type=RS41-SG ser=U2420917 Radiosonde
KERNO2-14U24209172022-12-07 00:59:1549.8299-4.9765312410931021Clb=5.5m/s t=-68.0C h=6.5% 403.30MHz Type=RS41-SG Details on http://radiosondy.info
M7CWL-14U24209172022-12-07 00:58:5649.832-4.980912210630948Clb=6.5m/s t=-68.1C h=6.6% 403.30MHz Type=RS41-SG Details on http://radiosondy.info
KERNO2-14U24209172022-12-07 00:58:5249.8325-4.9820412410230934Clb=4.3m/s t=-68.2C h=6.6% 403.30MHz Type=RS41-SG TxPastBurst=8h30m batt=2.5V Details on http://radiosondy.info
F4IPAU24209172022-12-07 00:58:4349.8335-4.9837313410630893Clb=6.1m/s t=-68.2C h=1.4% p=-1.0hPa 403.300 MHz Type=RS41-SG ser=U2420917 Radiosonde
M7CWL-14U24209172022-12-07 00:58:3349.8346-4.9862612110930851Clb=4.8m/s t=-68.0C h=6.5% 403.30MHz Type=RS41-SG batt=2.5V Details on http://radiosondy.info
KERNO2-14U24209172022-12-07 00:58:3149.8349-4.9869212611130840Clb=6.3m/s t=-67.9C h=6.4% 403.30MHz Type=RS41-SG Details on http://radiosondy.info
M7CWL-14U24209172022-12-07 00:58:1249.8372-4.9912412411930763Clb=5.5m/s t=-68.0C h=6.6% 403.30MHz Type=RS41-SG Details on http://radiosondy.info
KERNO2-14U24209172022-12-07 00:58:0949.8377-4.9923412711930744Clb=5.5m/s t=-68.0C h=6.5% 403.30MHz Type=RS41-SG Details on http://radiosondy.info
F4IPAU24209172022-12-07 00:58:0149.8388-4.9943112613030707Clb=5.4m/s t=-68.1C h=1.4% p=-1.0hPa 403.300 MHz Type=RS41-SG ser=U2420917 Radiosonde
M7CWL-14U24209172022-12-07 00:57:5349.8397-4.99681259630672Clb=5.0m/s t=-68.0C h=6.3% 403.30MHz Type=RS41-SG Details on http://radiosondy.info
KERNO2-14U24209172022-12-07 00:57:4949.8405-4.9981913512830645Clb=4.5m/s t=-68.4C h=6.5% 403.30MHz Type=RS41-SG batt=2.6V Details on http://radiosondy.info
KERNO2-14U24209172022-12-07 00:57:2649.8431-5.0047612112630542Clb=7.1m/s t=-68.8C h=6.8% 403.30MHz Type=RS41-SG Details on http://radiosondy.info
F4IPAU24209172022-12-07 00:57:1949.8439-5.0070611212830509Clb=8.0m/s t=-69.0C h=1.5% p=-1.0hPa 403.300 MHz Type=RS41-SG ser=U2420917 Radiosonde
KERNO2-14U24209172022-12-07 00:57:0549.8455-5.0115311411730437Clb=7.5m/s t=-68.7C h=6.9% 403.30MHz Type=RS41-SG Details on http://radiosondy.info
KERNO2-14U24209172022-12-07 00:56:4349.8475-5.0179311910930327Clb=6.2m/s t=-68.3C h=6.9% 403.30MHz Type=RS41-SG batt=2.5V Details on http://radiosondy.info
F4IPAU24209172022-12-07 00:56:3849.848-5.0194711610730300Clb=7.9m/s t=-68.2C h=1.5% p=-1.0hPa 403.300 MHz Type=RS41-SG ser=U2420917 Radiosonde
KERNO2-14U24209172022-12-07 00:56:2149.8496-5.0237412010030221Clb=6.1m/s t=-67.7C h=6.7% 403.30MHz Type=RS41-SG Details on http://radiosondy.info
KERNO2-14U24209172022-12-07 00:56:0049.8518-5.028771219130109Clb=5.2m/s t=-67.1C h=6.4% 403.30MHz Type=RS41-SG Details on http://radiosondy.info
F4IPAU24209172022-12-07 00:55:5549.8521-5.029591329430090Clb=8.3m/s t=-67.1C h=1.4% p=-1.0hPa 403.300 MHz Type=RS41-SG ser=U2420917 Radiosonde
KERNO2-14U24209172022-12-07 00:55:3849.8539-5.033251288730002Clb=7.2m/s t=-66.7C h=6.4% 403.30MHz Type=RS41-SG TxPastBurst=8h30m batt=2.5V Details on http://radiosondy.info
KERNO2-14U24209172022-12-07 00:55:1749.8558-5.037721378729903Clb=5.2m/s t=-66.6C h=6.3% 403.30MHz Type=RS41-SG Details on http://radiosondy.info
F4IPAU24209172022-12-07 00:55:1449.8562-5.038312810429892Clb=5.8m/s t=-66.6C h=1.3% p=-1.0hPa 403.300 MHz Type=RS41-SG ser=U2420917 Radiosonde
KERNO2-14U24209172022-12-07 00:54:5549.8576-5.042181197829807Clb=5.4m/s t=-66.2C h=6.1% 403.30MHz Type=RS41-SG Details on http://radiosondy.info
M7CWL-14U24209172022-12-07 00:54:5249.8578-5.042751187829795Clb=6.6m/s t=-66.2C h=6.2% 403.30MHz Type=RS41-SG TxPastBurst=8h30m batt=2.6V Details on http://radiosondy.info
KERNO2-14U24209172022-12-07 00:54:3449.8593-5.046071227429711Clb=6.8m/s t=-65.9C h=6.0% 403.30MHz Type=RS41-SG batt=2.5V Details on http://radiosondy.info
F4IPAU24209172022-12-07 00:54:3349.8594-5.046341208129705Clb=5.3m/s t=-65.9C h=1.2% p=-1.0hPa 403.300 MHz Type=RS41-SG ser=U2420917 Radiosonde
M7CWL-14U24209172022-12-07 00:54:3149.8595-5.046611237229700Clb=4.4m/s t=-65.8C h=5.9% 403.30MHz Type=RS41-SG Details on http://radiosondy.info
KERNO2-14U24209172022-12-07 00:54:1349.8611-5.049491247229617Clb=6.4m/s t=-66.4C h=6.2% 403.30MHz Type=RS41-SG Details on http://radiosondy.info
M7CWL-14U24209172022-12-07 00:54:1049.8612-5.049711227229611Clb=6.8m/s t=-66.4C h=6.2% 403.30MHz Type=RS41-SG Details on http://radiosondy.info
F4IPAU24209172022-12-07 00:53:4949.8629-5.052881285929525Clb=5.2m/s t=-66.1C h=1.3% p=-1.0hPa 403.300 MHz Type=RS41-SG ser=U2420917 Radiosonde
M7CWL-14U24209172022-12-07 00:53:4849.863-5.052881295629525Clb=5.2m/s t=-66.1C h=6.0% 403.30MHz Type=RS41-SG batt=2.6V Details on http://radiosondy.info
KERNO2-14U24209172022-12-07 00:53:2749.8645-5.0561416929435Clb=6.4m/s t=-66.0C h=6.1% 403.30MHz Type=RS41-SG batt=2.5V Details on http://radiosondy.info
F4IPAU24209172022-12-07 00:53:0649.8661-5.05911297229353Clb=4.6m/s t=-65.5C h=1.3% p=-1.0hPa 403.300 MHz Type=RS41-SG ser=U2420917 Radiosonde
KERNO2-14U24209172022-12-07 00:53:0549.8662-5.05931336929347Clb=6.3m/s t=-65.4C h=5.9% 403.30MHz Type=RS41-SG Details on http://radiosondy.info
KERNO2-14U24209172022-12-07 00:52:4249.8677-5.062921267229261Clb=4.9m/s t=-65.5C h=5.8% 403.30MHz Type=RS41-SG Details on http://radiosondy.info
F4IPAU24209172022-12-07 00:52:1949.8687-5.066471217229183Clb=4.3m/s t=-65.9C h=1.3% p=-1.0hPa 403.300 MHz Type=RS41-SG ser=U2420917 Radiosonde
KERNO2-14U24209172022-12-07 00:52:1649.8689-5.066991157429171Clb=6.7m/s t=-65.9C h=5.9% 403.30MHz Type=RS41-SG TxPastBurst=8h30m batt=2.5V Details on http://radiosondy.info
KERNO2-14U24209172022-12-07 00:51:5249.8701-5.071141167429081Clb=6.7m/s t=-66.4C h=6.0% 403.30MHz Type=RS41-SG Details on http://radiosondy.info
F4IPAU24209172022-12-07 00:51:3249.8714-5.074351296729004Clb=5.4m/s t=-66.9C h=1.4% p=-1.0hPa 403.300 MHz Type=RS41-SG ser=U2420917 Radiosonde
KERNO2-14U24209172022-12-07 00:51:2749.8717-5.074971246728986Clb=6.6m/s t=-66.9C h=6.2% 403.30MHz Type=RS41-SG Details on http://radiosondy.info
KERNO2-14U24209172022-12-07 00:51:0549.8733-5.078141225928893Clb=7.1m/s t=-67.3C h=6.5% 403.30MHz Type=RS41-SG batt=2.6V Details on http://radiosondy.info
F4IPAU24209172022-12-07 00:50:4649.8745-5.080431246128822Clb=5.6m/s t=-67.5C h=1.4% p=-1.0hPa 403.300 MHz Type=RS41-SG ser=U2420917 Radiosonde
KERNO2-14U24209172022-12-07 00:50:3849.8747-5.081061145728798Clb=5.5m/s t=-67.6C h=6.4% 403.30MHz Type=RS41-SG Details on http://radiosondy.info
M7CWL-14U24209172022-12-07 00:50:2849.8752-5.082241365728756Clb=5.0m/s t=-68.0C h=6.6% 403.30MHz Type=RS41-SG Details on http://radiosondy.info
KERNO2-14U24209172022-12-07 00:50:1349.8761-5.084351225628692Clb=6.3m/s t=-68.1C h=6.6% 403.30MHz Type=RS41-SG Details on http://radiosondy.info
M7CWL-14U24209172022-12-07 00:50:0749.8763-5.085061205728669Clb=5.8m/s t=-68.2C h=6.7% 403.30MHz Type=RS41-SG Details on http://radiosondy.info
F4IPAU24209172022-12-07 00:49:5849.8768-5.085971276128637Clb=7.2m/s t=-68.3C h=1.5% p=-1.0hPa 403.300 MHz Type=RS41-SG ser=U2420917 Radiosonde
KERNO2-14U24209172022-12-07 00:49:4949.8774-5.087051425428596Clb=4.6m/s t=-68.3C h=6.7% 403.30MHz Type=RS41-SG batt=2.6V Details on http://radiosondy.info
M7CWL-14U24209172022-12-07 00:49:4449.8777-5.087551215028577Clb=6.5m/s t=-68.4C h=6.7% 403.30MHz Type=RS41-SG batt=2.5V Details on http://radiosondy.info
KERNO2-14U24209172022-12-07 00:49:2749.8787-5.089551425928497Clb=5.6m/s t=-68.8C h=7.0% 403.30MHz Type=RS41-SG Details on http://radiosondy.info
M7CWL-14U24209172022-12-07 00:49:2349.8789-5.089811376528485Clb=6.7m/s t=-68.8C h=7.0% 403.30MHz Type=RS41-SG Details on http://radiosondy.info
F4IPAU24209172022-12-07 00:49:1349.8796-5.090791455728446Clb=5.8m/s t=-68.8C h=1.7% p=-1.0hPa 403.300 MHz Type=RS41-SG ser=U2420917 Radiosonde
KERNO2-14U24209172022-12-07 00:49:0249.8805-5.091941446728395Clb=5.6m/s t=-68.6C h=6.9% 403.30MHz Type=RS41-SG Details on http://radiosondy.info
KERNO2-14U24209172022-12-07 00:48:3949.8826-5.094631337628295Clb=6.9m/s t=-68.8C h=6.9% 403.30MHz Type=RS41-SG TxPastBurst=8h30m batt=2.6V Details on http://radiosondy.info
F4IPAU24209172022-12-07 00:48:2749.8835-5.096051388028252Clb=5.9m/s t=-68.7C h=1.6% p=-1.0hPa 403.300 MHz Type=RS41-SG ser=U2420917 Radiosonde
KERNO2-14U24209172022-12-07 00:48:1549.8849-5.097521517628192Clb=7.6m/s t=-68.8C h=7.0% 403.30MHz Type=RS41-SG Details on http://radiosondy.info
KERNO2-14U24209172022-12-07 00:47:5249.8875-5.100091447828091Clb=6.7m/s t=-69.1C h=7.1% 403.30MHz Type=RS41-SG Details on http://radiosondy.info
F4IPAU24209172022-12-07 00:47:4149.8884-5.101161408528055Clb=4.9m/s t=-69.2C h=1.7% p=-1.0hPa 403.300 MHz Type=RS41-SG ser=U2420917 Radiosonde
KERNO2-14U24209172022-12-07 00:47:2749.8899-5.103011447827993Clb=7.1m/s t=-68.8C h=6.9% 403.30MHz Type=RS41-SG batt=2.5V Details on http://radiosondy.info
KERNO2-14U24209172022-12-07 00:46:5549.8928-5.106081517427886Clb=5.6m/s t=-68.7C h=7.2% 403.30MHz Type=RS41-SG Details on http://radiosondy.info
F4IPAU24209172022-12-07 00:46:4949.8935-5.106731438027862Clb=4.6m/s t=-68.7C h=1.7% p=-1.0hPa 403.300 MHz Type=RS41-SG ser=U2420917 Radiosonde
KERNO2-14U24209172022-12-07 00:46:3249.8951-5.108861517227793Clb=5.4m/s t=-68.2C h=6.9% 403.30MHz Type=RS41-SG Details on http://radiosondy.info
KERNO2-14U24209172022-12-07 00:46:0749.8975-5.111351476727702Clb=5.1m/s t=-68.2C h=6.7% 403.30MHz Type=RS41-SG batt=2.5V Details on http://radiosondy.info
F4IPAU24209172022-12-07 00:46:0349.8979-5.11181356327683Clb=5.6m/s t=-68.3C h=1.6% p=-1.0hPa 403.300 MHz Type=RS41-SG ser=U2420917 Radiosonde
M7CWL-14U24209172022-12-07 00:46:0049.898-5.111971356927678Clb=4.5m/s t=-68.2C h=6.8% 403.30MHz Type=RS41-SG Details on http://radiosondy.info
KERNO2-14U24209172022-12-07 00:45:4349.8996-5.113721466927610Clb=5.0m/s t=-68.2C h=6.7% 403.30MHz Type=RS41-SG Details on http://radiosondy.info
M7CWL-14U24209172022-12-07 00:45:3849.9-5.114181407227591Clb=5.2m/s t=-68.2C h=6.7% 403.30MHz Type=RS41-SG TxPastBurst=8h30m batt=2.6V Details on http://radiosondy.info
KERNO2-14U24209172022-12-07 00:45:1849.902-5.115861537027518Clb=4.1m/s t=-68.3C h=7.0% 403.30MHz Type=RS41-SG Details on http://radiosondy.info
F4IPAU24209172022-12-07 00:45:1649.9024-5.116121517627507Clb=6.8m/s t=-68.4C h=1.6% p=-1.0hPa 403.300 MHz Type=RS41-SG ser=U2420917 Radiosonde
M7CWL-14U24209172022-12-07 00:45:1249.9025-5.116271517227501Clb=5.3m/s t=-68.4C h=7.0% 403.30MHz Type=RS41-SG Details on http://radiosondy.info
KERNO2-14U24209172022-12-07 00:44:5549.9045-5.11791576727428Clb=4.0m/s t=-68.1C h=6.9% 403.30MHz Type=RS41-SG TxPastBurst=8h30m batt=2.5V Details on http://radiosondy.info
M7CWL-14U24209172022-12-07 00:44:5149.9048-5.118141535727416Clb=6.7m/s t=-68.0C h=6.8% 403.30MHz Type=RS41-SG Details on http://radiosondy.info
KERNO2-14U24209172022-12-07 00:44:3149.9067-5.120161416727336Clb=6.7m/s t=-67.8C h=6.6% 403.30MHz Type=RS41-SG Details on http://radiosondy.info
F4IPAU24209172022-12-07 00:44:3049.9069-5.120331376927329Clb=6.8m/s t=-67.8C h=1.6% p=-1.0hPa 403.300 MHz Type=RS41-SG ser=U2420917 Radiosonde
KERNO2-14U24209172022-12-07 00:44:0849.9089-5.122531376727242Clb=6.7m/s t=-68.1C h=6.9% 403.30MHz Type=RS41-SG Details on http://radiosondy.info
F4IPAU24209172022-12-07 00:43:5149.9108-5.12531355227152Clb=5.4m/s t=-67.8C h=1.5% p=-1.0hPa 403.300 MHz Type=RS41-SG ser=U2420917 Radiosonde
KERNO2-14U24209172022-12-07 00:43:5049.9108-5.12531366327152Clb=5.3m/s t=-67.7C h=6.5% 403.30MHz Type=RS41-SG batt=2.6V Details on http://radiosondy.info
KERNO2-14U24209172022-12-07 00:43:3449.9126-5.127991455427056Clb=4.7m/s t=-68.3C h=6.9% 403.30MHz Type=RS41-SG Details on http://radiosondy.info
F4IPAU24209172022-12-07 00:43:2049.9139-5.130261374826963Clb=5.3m/s t=-68.2C h=1.6% p=-1.0hPa 403.300 MHz Type=RS41-SG ser=U2420917 Radiosonde
KERNO2-14U24209172022-12-07 00:43:1849.914-5.130391344626957Clb=7.5m/s t=-68.1C h=6.9% 403.30MHz Type=RS41-SG Details on http://radiosondy.info
KERNO2-14U24209172022-12-07 00:43:0049.9153-5.132711174626845Clb=5.7m/s t=-67.9C h=6.7% 403.30MHz Type=RS41-SG batt=2.6V Details on http://radiosondy.info
F4IPAU24209172022-12-07 00:42:4949.9161-5.134491314126769Clb=6.3m/s t=-67.9C h=1.6% p=-1.0hPa 403.300 MHz Type=RS41-SG ser=U2420917 Radiosonde
KERNO2-14U24209172022-12-07 00:42:4449.9164-5.135031274426744Clb=6.7m/s t=-67.8C h=6.7% 403.30MHz Type=RS41-SG Details on http://radiosondy.info
KERNO2-14U24209172022-12-07 00:42:3249.9177-5.136821425226643Clb=6.4m/s t=-67.5C h=6.7% 403.30MHz Type=RS41-SG Details on http://radiosondy.info
M7CWL-14U24209172022-12-07 00:42:2649.9182-5.137221505626611Clb=7.0m/s t=-67.6C h=6.6% 403.30MHz Type=RS41-SG batt=2.5V Details on http://radiosondy.info
F4IPAU24209172022-12-07 00:42:2049.9189-5.13781586126573Clb=5.7m/s t=-67.6C h=1.6% p=-1.0hPa 403.300 MHz Type=RS41-SG ser=U2420917 Radiosonde
KERNO2-14U24209172022-12-07 00:42:1449.9195-5.138381485626540Clb=6.8m/s t=-67.4C h=6.6% 403.30MHz Type=RS41-SG TxPastBurst=8h30m batt=2.5V Details on http://radiosondy.info
M7CWL-14U24209172022-12-07 00:42:0749.9201-5.138881465626506Clb=7.7m/s t=-67.2C h=6.5% 403.30MHz Type=RS41-SG Details on http://radiosondy.info
KERNO2-14U24209172022-12-07 00:41:5749.9214-5.140251475026431Clb=7.2m/s t=-67.1C h=6.5% 403.30MHz Type=RS41-SG Details on http://radiosondy.info
F4IPAU24209172022-12-07 00:41:5649.9224-5.141511385226366Clb=7.6m/s t=-67.0C h=1.4% p=-1.0hPa 403.300 MHz Type=RS41-SG ser=U2420917 Radiosonde
KERNO2-14U24209172022-12-07 00:41:5549.9247-5.144011424426231Clb=5.9m/s t=-66.9C h=6.4% 403.30MHz Type=RS41-SG batt=2.5V Details on http://radiosondy.info
KERNO2-14U24209172022-12-07 00:41:5349.9263-5.145381515426127Clb=6.5m/s t=-66.8C h=6.5% 403.30MHz Type=RS41-SG Details on http://radiosondy.info
KERNO2-14U24209172022-12-07 00:41:4949.9282-5.146471625926025Clb=5.0m/s t=-66.5C h=6.2% 403.30MHz Type=RS41-SG Details on http://radiosondy.info
F4IPAU24209172022-12-07 00:41:4849.9293-5.146791615225975Clb=5.2m/s t=-66.3C h=1.4% p=-1.0hPa 403.300 MHz Type=RS41-SG ser=U2420917 Radiosonde
KERNO2-14U24209172022-12-07 00:41:4649.9305-5.147331676525927Clb=5.4m/s t=-66.2C h=6.2% 403.30MHz Type=RS41-SG batt=2.6V Details on http://radiosondy.info
KERNO2-14U24209172022-12-07 00:41:4149.933-5.148231786125830Clb=5.0m/s t=-66.1C h=6.3% 403.30MHz Type=RS41-SG Details on http://radiosondy.info
F4IPAU24209172022-12-07 00:41:3949.9341-5.148521625625787Clb=4.9m/s t=-65.9C h=1.4% p=-1.0hPa 403.300 MHz Type=RS41-SG ser=U2420917 Radiosonde
KERNO2-14U24209172022-12-07 00:41:3449.938-5.149991686725643Clb=6.9m/s t=-65.5C h=6.0% 403.30MHz Type=RS41-SG TxPastBurst=8h30m batt=2.6V Details on http://radiosondy.info
F4IPAU24209172022-12-07 00:41:3349.9392-5.150491656325596Clb=6.3m/s t=-65.5C h=1.3% p=-1.0hPa 403.300 MHz Type=RS41-SG ser=U2420917 Radiosonde
M7CWL-14U24209172022-12-07 00:41:3249.9427-5.152441597825481Clb=4.6m/s t=-65.8C h=6.0% 403.30MHz Type=RS41-SG Details on http://radiosondy.info
M7CWL-14U24209172022-12-07 00:41:3149.9456-5.154411577025390Clb=5.8m/s t=-65.7C h=6.1% 403.30MHz Type=RS41-SG Details on http://radiosondy.info
M7CWL-14U24209172022-12-07 00:41:3049.948-5.156431555025305Clb=5.5m/s t=-65.3C h=6.1% 403.30MHz Type=RS41-SG TxPastBurst=8h30m batt=2.6V Details on http://radiosondy.info
KERNO2-14U24209172022-12-07 00:41:2949.9506-5.159231356325204Clb=6.3m/s t=-64.8C h=5.8% 403.30MHz Type=RS41-SG Details on http://radiosondy.info
KERNO2-14U24209172022-12-07 00:41:2849.9526-5.16161435925116Clb=5.3m/s t=-64.7C h=5.8% 403.30MHz Type=RS41-SG batt=2.5V Details on http://radiosondy.info
KERNO2-14U24209172022-12-07 00:41:2749.9545-5.163691505425028Clb=4.8m/s t=-64.4C h=5.7% 403.30MHz Type=RS41-SG Details on http://radiosondy.info
KERNO2-14U24209172022-12-07 00:41:2649.9562-5.165581385224939Clb=4.2m/s t=-64.7C h=5.6% 403.30MHz Type=RS41-SG Details on http://radiosondy.info
KERNO2-14U24209172022-12-07 00:41:2549.9592-5.17041265224752Clb=5.6m/s t=-64.9C h=6.0% 403.30MHz Type=RS41-SG Details on http://radiosondy.info
F4IPAU24209172022-12-07 00:41:2449.9593-5.170561295224746Clb=4.9m/s t=-64.9C h=1.3% p=-1.0hPa 403.300 MHz Type=RS41-SG ser=U2420917 Radiosonde
KERNO2-14U24209172022-12-07 00:41:2349.9622-5.174321464324560Clb=6.6m/s t=-63.6C h=5.5% 403.30MHz Type=RS41-SG batt=2.5V Details on http://radiosondy.info
KERNO2-14U24209172022-12-07 00:41:2249.9636-5.175791444124464Clb=5.2m/s t=-63.5C h=5.5% 403.30MHz Type=RS41-SG Details on http://radiosondy.info
F4IPAU24209172022-12-07 00:41:1249.9648-5.177191483724374Clb=5.0m/s t=-63.6C h=1.3% p=-1.0hPa 403.300 MHz Type=RS41-SG ser=U2420917 Radiosonde
M7CWL-14U24209172022-12-07 00:41:1149.9648-5.177191493524374Clb=5.0m/s t=-63.6C h=5.5% 403.30MHz Type=RS41-SG Details on http://radiosondy.info
KERNO2-14U24209172022-12-07 00:41:1049.9649-5.177261473524368Clb=7.3m/s t=-63.6C h=5.5% 403.30MHz Type=RS41-SG Details on http://radiosondy.info
M7CWL-14U24209172022-12-07 00:40:4949.9659-5.178531574624278Clb=6.2m/s t=-63.8C h=5.5% 403.30MHz Type=RS41-SG batt=2.5V Details on http://radiosondy.info
KERNO2-14U24209172022-12-07 00:40:4749.966-5.178591604824272Clb=6.0m/s t=-63.8C h=5.5% 403.30MHz Type=RS41-SG batt=2.6V Details on http://radiosondy.info
F4IPAU24209172022-12-07 00:40:2549.9675-5.179791545424189Clb=6.2m/s t=-63.6C h=1.3% p=-1.0hPa 403.300 MHz Type=RS41-SG ser=U2420917 Radiosonde
M7CWL-14U24209172022-12-07 00:40:2449.9675-5.179791555024189Clb=6.1m/s t=-63.6C h=5.4% 403.30MHz Type=RS41-SG Details on http://radiosondy.info
KERNO2-14U24209172022-12-07 00:40:2349.9677-5.179971535924177Clb=5.0m/s t=-63.5C h=5.4% 403.30MHz Type=RS41-SG Details on http://radiosondy.info
KERNO2-14U24209172022-12-07 00:39:5749.9698-5.181541536524085Clb=6.8m/s t=-64.0C h=5.7% 403.30MHz Type=RS41-SG Details on http://radiosondy.info
F4IPAU24209172022-12-07 00:39:3949.9718-5.182581566124009Clb=5.1m/s t=-64.0C h=1.3% p=-1.0hPa 403.300 MHz Type=RS41-SG ser=U2420917 Radiosonde
KERNO2-14U24209172022-12-07 00:39:3049.9725-5.183171586323981Clb=6.7m/s t=-64.1C h=5.7% 403.30MHz Type=RS41-SG TxPastBurst=8h30m batt=2.6V Details on http://radiosondy.info
KERNO2-14U24209172022-12-07 00:39:0749.9748-5.184471635923895Clb=6.1m/s t=-64.2C h=5.7% 403.30MHz Type=RS41-SG Details on http://radiosondy.info
F4IPAU24209172022-12-07 00:38:5249.9762-5.185211505423841Clb=6.2m/s t=-64.3C h=1.4% p=-1.0hPa 403.300 MHz Type=RS41-SG ser=U2420917 Radiosonde
KERNO2-14U24209172022-12-07 00:38:4149.977-5.185761615423810Clb=5.0m/s t=-64.4C h=5.8% 403.30MHz Type=RS41-SG Details on http://radiosondy.info
KERNO2-14U24209172022-12-07 00:38:1849.9788-5.187521335223723Clb=5.1m/s t=-64.5C h=5.8% 403.30MHz Type=RS41-SG batt=2.5V Details on http://radiosondy.info
F4IPAU24209172022-12-07 00:38:0349.9796-5.188841365423677Clb=4.9m/s t=-64.2C h=1.4% p=-1.0hPa 403.300 MHz Type=RS41-SG ser=U2420917 Radiosonde
KERNO2-14U24209172022-12-07 00:37:5149.9803-5.189731404623642Clb=5.5m/s t=-64.1C h=5.6% 403.30MHz Type=RS41-SG Details on http://radiosondy.info
KERNO2-14U24209172022-12-07 00:37:2449.9816-5.191751424123557Clb=4.2m/s t=-64.7C h=5.8% 403.30MHz Type=RS41-SG Details on http://radiosondy.info
F4IPAU24209172022-12-07 00:37:1149.9823-5.192641424323518Clb=4.2m/s t=-65.0C h=1.4% p=-1.0hPa 403.300 MHz Type=RS41-SG ser=U2420917 Radiosonde
M7CWL-14U24209172022-12-07 00:37:0249.9825-5.193051363023497Clb=5.0m/s t=-64.9C h=5.9% 403.30MHz Type=RS41-SG Details on http://radiosondy.info
KERNO2-14U24209172022-12-07 00:36:5649.9828-5.193381402623476Clb=6.5m/s t=-65.0C h=5.9% 403.30MHz Type=RS41-SG batt=2.6V Details on http://radiosondy.info
M7CWL-14U24209172022-12-07 00:36:3649.9834-5.19421502023410Clb=5.3m/s t=-64.8C h=6.0% 403.30MHz Type=RS41-SG batt=2.5V Details on http://radiosondy.info
KERNO2-14U24209172022-12-07 00:36:3049.9836-5.194431151923388Clb=4.2m/s t=-64.7C h=6.0% 403.30MHz Type=RS41-SG Details on http://radiosondy.info
F4IPAU24209172022-12-07 00:36:1849.9838-5.194731332623351Clb=5.7m/s t=-64.5C h=1.4% p=-1.0hPa 403.300 MHz Type=RS41-SG ser=U2420917 Radiosonde
M7CWL-14U24209172022-12-07 00:36:1049.984-5.194981501723330Clb=5.5m/s t=-64.3C h=5.7% 403.30MHz Type=RS41-SG Details on http://radiosondy.info
KERNO2-14U24209172022-12-07 00:36:0449.9841-5.195091511123303Clb=5.4m/s t=-64.1C h=5.6% 403.30MHz Type=RS41-SG Details on http://radiosondy.info
M7CWL-14U24209172022-12-07 00:35:4849.9843-5.195471721523247Clb=4.0m/s t=-64.5C h=5.7% 403.30MHz Type=RS41-SG Details on http://radiosondy.info
KERNO2-14U24209172022-12-07 00:35:3949.9844-5.19547193723213Clb=5.8m/s t=-64.6C h=5.8% 403.30MHz Type=RS41-SG TxPastBurst=8h30m batt=2.5V Details on http://radiosondy.info
F4IPAU24209172022-12-07 00:35:2749.9845-5.1956295923180Clb=5.3m/s t=-64.5C h=1.3% p=-1.0hPa 403.300 MHz Type=RS41-SG ser=U2420917 Radiosonde
KERNO2-14U24209172022-12-07 00:35:1249.9845-5.195791301723125Clb=5.5m/s t=-64.5C h=5.7% 403.30MHz Type=RS41-SG Details on http://radiosondy.info
KERNO2-14U24209172022-12-07 00:34:4949.9848-5.19671061723032Clb=5.6m/s t=-64.6C h=5.9% 403.30MHz Type=RS41-SG Details on http://radiosondy.info
F4IPAU24209172022-12-07 00:34:3949.985-5.197081241522997Clb=6.3m/s t=-64.3C h=1.4% p=-1.0hPa 403.300 MHz Type=RS41-SG ser=U2420917 Radiosonde
KERNO2-14U24209172022-12-07 00:34:2349.9852-5.197531131722938Clb=4.8m/s t=-64.2C h=5.6% 403.30MHz Type=RS41-SG batt=2.5V Details on http://radiosondy.info
KERNO2-14U24209172022-12-07 00:33:5849.9858-5.197951561522839Clb=6.4m/s t=-64.2C h=5.8% 403.30MHz Type=RS41-SG Details on http://radiosondy.info
F4IPAU24209172022-12-07 00:33:4949.986-5.198021731322808Clb=5.9m/s t=-64.1C h=-1.0% p=-1.0hPa 403.300 MHz Type=RS41 ser=U2420917 Radiosonde
KERNO2-14U24209172022-12-07 00:33:2949.9864-5.198011361522741Clb=6.5m/s t=-63.7C h=5.7% 403.30MHz Type=RS41-SG Details on http://radiosondy.info
KERNO2-14U24209172022-12-07 00:33:0249.987-5.198151941522648Clb=5.7m/s t=-63.2C h=5.5% 403.30MHz Type=RS41-SG batt=2.6V Details on http://radiosondy.info
KERNO2-14U24209172022-12-07 00:32:3449.9876-5.197951832022551Clb=6.1m/s t=-62.7C h=5.3% 403.30MHz Type=RS41-SG Details on http://radiosondy.info
KERNO2-14U24209172022-12-07 00:32:0349.9883-5.197451912222458Clb=5.4m/s t=-62.3C h=5.2% 403.30MHz Type=RS41-SG Details on http://radiosondy.info
M7CWL-14U24209172022-12-07 00:31:5349.9885-5.197342002422427Clb=5.9m/s t=-62.2C h=5.1% 403.30MHz Type=RS41-SG TxPastBurst=8h30m batt=2.5V Details on http://radiosondy.info
KERNO2-14U24209172022-12-07 00:31:3549.9891-5.196982022422362Clb=4.4m/s t=-62.1C h=5.1% 403.30MHz Type=RS41-SG TxPastBurst=8h30m batt=2.5V Details on http://radiosondy.info
M7CWL-14U24209172022-12-07 00:31:2849.9894-5.196782142422333Clb=6.7m/s t=-62.2C h=5.1% 403.30MHz Type=RS41-SG Details on http://radiosondy.info
KERNO2-14U24209172022-12-07 00:31:0849.99-5.196471932222270Clb=5.2m/s t=-62.2C h=5.2% 403.30MHz Type=RS41-SG Details on http://radiosondy.info
M7CWL-14U24209172022-12-07 00:31:0049.9902-5.196371952022241Clb=6.7m/s t=-62.2C h=5.2% 403.30MHz Type=RS41-SG Details on http://radiosondy.info
KERNO2-14U24209172022-12-07 00:30:4349.9908-5.196142062022180Clb=5.3m/s t=-62.1C h=5.1% 403.30MHz Type=RS41-SG Details on http://radiosondy.info
M7CWL-14U24209172022-12-07 00:30:3649.9909-5.195962193522157Clb=4.1m/s t=-62.1C h=5.1% 403.30MHz Type=RS41-SG batt=2.5V Details on http://radiosondy.info
KERNO2-14U24209172022-12-07 00:30:1749.9914-5.195282253022090Clb=5.2m/s t=-62.2C h=5.2% 403.30MHz Type=RS41-SG batt=2.5V Details on http://radiosondy.info
KERNO2-14U24209172022-12-07 00:29:4949.9922-5.19382373722005Clb=6.1m/s t=-62.0C h=5.1% 403.30MHz Type=RS41-SG Details on http://radiosondy.info
KERNO2-14U24209172022-12-07 00:29:2249.9932-5.192162163921920Clb=4.5m/s t=-61.7C h=5.1% 403.30MHz Type=RS41-SG Details on http://radiosondy.info
KERNO2-14U24209172022-12-07 00:28:5649.9945-5.190822124121837Clb=5.3m/s t=-61.3C h=5.0% 403.30MHz Type=RS41-SG batt=2.5V Details on http://radiosondy.info
KERNO2-14U24209172022-12-07 00:28:2949.9959-5.18982054421754Clb=5.5m/s t=-61.4C h=4.9% 403.30MHz Type=RS41-SG Details on http://radiosondy.info
KERNO2-14U24209172022-12-07 00:28:0349.9977-5.189211984821671Clb=4.5m/s t=-61.4C h=5.0% 403.30MHz Type=RS41-SG Details on http://radiosondy.info
KERNO2-14U24209172022-12-07 00:27:4649.9995-5.188481904621588Clb=5.6m/s t=-61.4C h=5.0% 403.30MHz Type=RS41-SG TxPastBurst=8h30m batt=2.5V Details on http://radiosondy.info
M7CWL-14U24209172022-12-07 00:27:4350.0188-5.196791732820259Clb=3.5m/s t=-61.5C h=5.1% 403.30MHz Type=RS41-SG Details on http://radiosondy.info
KERNO2-14U24209172022-12-07 00:27:4250.0198-5.197441662020161Clb=4.9m/s t=-60.9C h=4.9% 403.30MHz Type=RS41-SG Details on http://radiosondy.info
KERNO2-14U24209172022-12-07 00:27:3550.0206-5.197751551920084Clb=5.0m/s t=-60.7C h=4.8% 403.30MHz Type=RS41-SG TxPastBurst=8h30m batt=2.6V Details on http://radiosondy.info
KERNO2-14U24209172022-12-07 00:27:1750.0212-5.19841281920005Clb=4.2m/s t=-61.1C h=4.9% 403.30MHz Type=RS41-SG Details on http://radiosondy.info
KERNO2-14U24209172022-12-07 00:27:0150.0215-5.199361341519926Clb=6.1m/s t=-61.4C h=5.1% 403.30MHz Type=RS41-SG Details on http://radiosondy.info
KERNO2-14U24209172022-12-07 00:27:0050.0219-5.199641961519844Clb=5.4m/s t=-61.3C h=5.0% 403.30MHz Type=RS41-SG batt=2.6V Details on http://radiosondy.info
KERNO2-14U24209172022-12-07 00:26:5950.0225-5.199681721919762Clb=4.4m/s t=-61.0C h=5.0% 403.30MHz Type=RS41-SG Details on http://radiosondy.info
KERNO2-14U24209172022-12-07 00:26:5850.0232-5.199681882619679Clb=3.9m/s t=-60.8C h=5.0% 403.30MHz Type=RS41-SG Details on http://radiosondy.info
KERNO2-14U24209172022-12-07 00:26:5750.0243-5.199711813319596Clb=5.5m/s t=-60.4C h=4.8% 403.30MHz Type=RS41-SG batt=2.6V Details on http://radiosondy.info
M7CWL-14U24209172022-12-07 00:26:5650.0256-5.199661773519510Clb=4.5m/s t=-60.4C h=4.8% 403.30MHz Type=RS41-SG Details on http://radiosondy.info
M7CWL-14U24209172022-12-07 00:26:4250.0269-5.199921592619431Clb=5.9m/s t=-60.1C h=4.6% 403.30MHz Type=RS41-SG Details on http://radiosondy.info
M7CWL-14U24209172022-12-07 00:26:1950.0278-5.200371653319354Clb=4.1m/s t=-60.7C h=4.8% 403.30MHz Type=RS41-SG batt=2.6V Details on http://radiosondy.info
KERNO2-14U24209172022-12-07 00:26:1550.028-5.200411762419343Clb=4.9m/s t=-60.8C h=4.9% 403.30MHz Type=RS41-SG TxPastBurst=8h30m batt=2.7V Details on http://radiosondy.info
KERNO2-14U24209172022-12-07 00:25:4850.0288-5.200881602419260Clb=6.3m/s t=-60.8C h=4.9% 403.30MHz Type=RS41-SG Details on http://radiosondy.info
KERNO2-14U24209172022-12-07 00:25:2250.0297-5.201531522419174Clb=5.3m/s t=-60.8C h=5.0% 403.30MHz Type=RS41-SG Details on http://radiosondy.info
KERNO2-14U24209172022-12-07 00:24:5550.0306-5.202131591719092Clb=3.9m/s t=-60.7C h=4.9% 403.30MHz Type=RS41-SG batt=2.6V Details on http://radiosondy.info
KERNO2-14U24209172022-12-07 00:24:2850.0312-5.202212202019010Clb=4.6m/s t=-60.7C h=5.0% 403.30MHz Type=RS41-SG Details on http://radiosondy.info
KERNO2-14U24209172022-12-07 00:23:5950.0321-5.201811892418924Clb=5.8m/s t=-60.0C h=4.9% 403.30MHz Type=RS41-SG Details on http://radiosondy.info
KERNO2-14U24209172022-12-07 00:23:3250.033-5.201751742618843Clb=4.3m/s t=-59.4C h=4.7% 403.30MHz Type=RS41-SG batt=2.6V Details on http://radiosondy.info
KERNO2-14U24209172022-12-07 00:23:0450.0341-5.202061693118762Clb=4.4m/s t=-59.0C h=4.5% 403.30MHz Type=RS41-SG Details on http://radiosondy.info
KERNO2-14U24209172022-12-07 00:22:3350.0354-5.202661714118684Clb=5.0m/s t=-58.8C h=4.4% 403.30MHz Type=RS41-SG Details on http://radiosondy.info
M7CWL-14U24209172022-12-07 00:22:2150.036-5.203051474318650Clb=5.9m/s t=-58.7C h=4.5% 403.30MHz Type=RS41-SG Details on http://radiosondy.info
KERNO2-14U24209172022-12-07 00:22:0750.0368-5.203791533718604Clb=4.5m/s t=-58.8C h=4.4% 403.30MHz Type=RS41-SG TxPastBurst=8h30m batt=2.6V Details on http://radiosondy.info
M7CWL-14U24209172022-12-07 00:21:5650.0374-5.204221563318575Clb=3.8m/s t=-59.2C h=4.4% 403.30MHz Type=RS41-SG Details on http://radiosondy.info
KERNO2-14U24209172022-12-07 00:21:3850.0381-5.204861512818525Clb=5.6m/s t=-60.3C h=4.9% 403.30MHz Type=RS41-SG Details on http://radiosondy.info
M7CWL-14U24209172022-12-07 00:21:3050.0385-5.205221372818499Clb=4.1m/s t=-60.3C h=4.9% 403.30MHz Type=RS41-SG TxPastBurst=8h30m batt=2.6V Details on http://radiosondy.info
KERNO2-14U24209172022-12-07 00:21:1350.039-5.205921372018447Clb=4.4m/s t=-60.5C h=5.0% 403.30MHz Type=RS41-SG Details on http://radiosondy.info
M7CWL-14U24209172022-12-07 00:21:0550.0392-5.20621463318428Clb=5.4m/s t=-60.4C h=5.0% 403.30MHz Type=RS41-SG Details on http://radiosondy.info
KERNO2-14U24209172022-12-07 00:20:4450.0396-5.20681271318371Clb=5.4m/s t=-60.2C h=4.8% 403.30MHz Type=RS41-SG batt=2.7V Details on http://radiosondy.info
KERNO2-14U24209172022-12-07 00:20:1950.0399-5.2074102918297Clb=5.3m/s t=-61.1C h=5.3% 403.30MHz Type=RS41-SG Details on http://radiosondy.info
KERNO2-14U24209172022-12-07 00:19:5050.0398-5.20789128418218Clb=3.7m/s t=-61.1C h=5.2% 403.30MHz Type=RS41-SG Details on http://radiosondy.info
KERNO2-14U24209172022-12-07 00:19:2450.0398-5.20783203918137Clb=5.2m/s t=-60.9C h=5.2% 403.30MHz Type=RS41-SG batt=2.7V Details on http://radiosondy.info
KERNO2-14U24209172022-12-07 00:18:5650.0402-5.207412391918055Clb=5.5m/s t=-60.6C h=5.1% 403.30MHz Type=RS41-SG Details on http://radiosondy.info
KERNO2-14U24209172022-12-07 00:18:3150.0408-5.20692122217978Clb=4.2m/s t=-61.0C h=5.2% 403.30MHz Type=RS41-SG Details on http://radiosondy.info
KERNO2-14U24209172022-12-07 00:18:0150.0417-5.206531922817899Clb=3.5m/s t=-60.9C h=5.2% 403.30MHz Type=RS41-SG TxPastBurst=8h30m batt=2.7V Details on http://radiosondy.info
KERNO2-14U24209172022-12-07 00:17:3450.0428-5.206591714317817Clb=3.9m/s t=-61.0C h=5.1% 403.30MHz Type=RS41-SG Details on http://radiosondy.info
M7CWL-14U24209172022-12-07 00:17:1750.0436-5.206781674417777Clb=4.3m/s t=-61.3C h=5.3% 403.30MHz Type=RS41-SG Details on http://radiosondy.info
KERNO2-14U24209172022-12-07 00:17:0350.0445-5.207081734417735Clb=4.8m/s t=-61.1C h=5.3% 403.30MHz Type=RS41-SG Details on http://radiosondy.info
M7CWL-14U24209172022-12-07 00:16:4850.0454-5.207421633917696Clb=3.4m/s t=-60.9C h=5.3% 403.30MHz Type=RS41-SG batt=2.6V Details on http://radiosondy.info
KERNO2-14U24209172022-12-07 00:16:3550.0461-5.207861623917657Clb=6.1m/s t=-60.9C h=5.2% 403.30MHz Type=RS41-SG batt=2.7V Details on http://radiosondy.info
M7CWL-14U24209172022-12-07 00:16:2250.0467-5.208321443517619Clb=4.9m/s t=-60.7C h=5.1% 403.30MHz Type=RS41-SG Details on http://radiosondy.info
KERNO2-14U24209172022-12-07 00:16:0750.0475-5.208911393117575Clb=4.2m/s t=-60.7C h=5.2% 403.30MHz Type=RS41-SG Details on http://radiosondy.info
M7CWL-14U24209172022-12-07 00:15:5750.0478-5.209341393017543Clb=4.8m/s t=-60.6C h=5.1% 403.30MHz Type=RS41-SG Details on http://radiosondy.info
KERNO2-14U24209172022-12-07 00:15:4150.0485-5.210011493017494Clb=3.4m/s t=-60.3C h=5.0% 403.30MHz Type=RS41-SG Details on http://radiosondy.info
KERNO2-14U24209172022-12-07 00:15:1550.0496-5.210891452817418Clb=4.1m/s t=-59.6C h=4.9% 403.30MHz Type=RS41-SG batt=2.6V Details on http://radiosondy.info
KERNO2-14U24209172022-12-07 00:14:4650.0505-5.211751432417340Clb=5.4m/s t=-59.1C h=4.7% 403.30MHz Type=RS41-SG Details on http://radiosondy.info
KERNO2-14U24209172022-12-07 00:14:1950.0513-5.212511511917263Clb=4.5m/s t=-58.5C h=4.6% 403.30MHz Type=RS41-SG Details on http://radiosondy.info
KERNO2-14U24209172022-12-07 00:13:5250.0519-5.213141561717187Clb=3.3m/s t=-58.4C h=4.5% 403.30MHz Type=RS41-SG TxPastBurst=8h30m batt=2.6V Details on http://radiosondy.info
KERNO2-14U24209172022-12-07 00:13:2550.0525-5.213481831517115Clb=4.2m/s t=-59.0C h=4.8% 403.30MHz Type=RS41-SG Details on http://radiosondy.info
KERNO2-14U24209172022-12-07 00:12:5850.0531-5.213711572017042Clb=3.0m/s t=-58.7C h=4.7% 403.30MHz Type=RS41-SG Details on http://radiosondy.info
M7CWL-14U24209172022-12-07 00:12:3150.0549-5.214371593316899Clb=3.4m/s t=-58.3C h=4.5% 403.30MHz Type=RS41-SG batt=2.7V Details on http://radiosondy.info
M7CWL-14U24209172022-12-07 00:12:0450.0561-5.215031533716834Clb=4.6m/s t=-58.7C h=4.7% 403.30MHz Type=RS41-SG Details on http://radiosondy.info
KERNO2-14U24209172022-12-07 00:12:0350.0561-5.21511543716829Clb=3.6m/s t=-58.8C h=4.8% 403.30MHz Type=RS41-SG Details on http://radiosondy.info
M7CWL-14U24209172022-12-07 00:11:4850.0574-5.215581603516764Clb=3.9m/s t=-58.4C h=4.7% 403.30MHz Type=RS41-SG Details on http://radiosondy.info
KERNO2-14U24209172022-12-07 00:11:4650.0576-5.215651683516754Clb=4.6m/s t=-58.3C h=4.6% 403.30MHz Type=RS41-SG batt=2.7V Details on http://radiosondy.info
M7CWL-14U24209172022-12-07 00:11:3750.0586-5.216251632416691Clb=3.7m/s t=-57.7C h=4.5% 403.30MHz Type=RS41-SG TxPastBurst=8h30m batt=2.6V Details on http://radiosondy.info
KERNO2-14U24209172022-12-07 00:11:3550.0589-5.216421583716676Clb=3.9m/s t=-57.6C h=4.4% 403.30MHz Type=RS41-SG Details on http://radiosondy.info
KERNO2-14U24209172022-12-07 00:11:1650.0602-5.217381543716596Clb=5.3m/s t=-57.5C h=4.5% 403.30MHz Type=RS41-SG Details on http://radiosondy.info
KERNO2-14U24209172022-12-07 00:10:5850.0615-5.218471533316518Clb=3.9m/s t=-58.0C h=4.5% 403.30MHz Type=RS41-SG TxPastBurst=8h30m batt=2.7V Details on http://radiosondy.info
KERNO2-14U24209172022-12-07 00:10:5250.0624-5.219821492216440Clb=4.8m/s t=-58.6C h=4.7% 403.30MHz Type=RS41-SG Details on http://radiosondy.info
KERNO2-14U24209172022-12-07 00:10:4650.063-5.220871261516363Clb=5.5m/s t=-58.7C h=4.7% 403.30MHz Type=RS41-SG Details on http://radiosondy.info
KERNO2-14U24209172022-12-07 00:10:4150.0632-5.221631121316287Clb=3.4m/s t=-59.1C h=4.9% 403.30MHz Type=RS41-SG batt=2.7V Details on http://radiosondy.info
KERNO2-14U24209172022-12-07 00:10:2550.0636-5.222221561316212Clb=4.4m/s t=-58.6C h=4.7% 403.30MHz Type=RS41-SG Details on http://radiosondy.info
KERNO2-14U24209172022-12-07 00:10:0950.0641-5.222581891916138Clb=3.6m/s t=-58.7C h=4.8% 403.30MHz Type=RS41-SG Details on http://radiosondy.info
M7CWL-14U24209172022-12-07 00:10:0150.0649-5.22271591716041Clb=4.4m/s t=-58.6C h=4.8% 403.30MHz Type=RS41-SG Details on http://radiosondy.info
KERNO2-14U24209172022-12-07 00:09:5850.0654-5.222981392215983Clb=4.5m/s t=-58.2C h=4.6% 403.30MHz Type=RS41-SG Details on http://radiosondy.info
M7CWL-14U24209172022-12-07 00:09:5750.0655-5.223111532015969Clb=3.8m/s t=-58.1C h=4.7% 403.30MHz Type=RS41-SG Details on http://radiosondy.info
KERNO2-14U24209172022-12-07 00:09:5550.0661-5.22361512215908Clb=5.2m/s t=-57.7C h=4.5% 403.30MHz Type=RS41-SG Details on http://radiosondy.info
M7CWL-14U24209172022-12-07 00:09:5450.0662-5.223691542415898Clb=3.8m/s t=-57.7C h=4.5% 403.30MHz Type=RS41-SG batt=2.7V Details on http://radiosondy.info
KERNO2-14U24209172022-12-07 00:09:4950.067-5.224291632615832Clb=2.9m/s t=-57.9C h=4.7% 403.30MHz Type=RS41-SG TxPastBurst=8h30m batt=2.6V Details on http://radiosondy.info
KERNO2-14U24209172022-12-07 00:09:4850.0679-5.225191352815760Clb=3.6m/s t=-57.7C h=4.6% 403.30MHz Type=RS41-SG Details on http://radiosondy.info
KERNO2-14U24209172022-12-07 00:09:4750.0688-5.226121542815689Clb=3.7m/s t=-57.8C h=4.4% 403.30MHz Type=RS41-SG Details on http://radiosondy.info
KERNO2-14U24209172022-12-07 00:09:4650.0697-5.227031433015618Clb=4.7m/s t=-58.2C h=4.7% 403.30MHz Type=RS41-SG batt=2.7V Details on http://radiosondy.info
KERNO2-14U24209172022-12-07 00:09:4550.0707-5.228021463515547Clb=5.1m/s t=-58.2C h=4.7% 403.30MHz Type=RS41-SG Details on http://radiosondy.info
KERNO2-14U24209172022-12-07 00:09:4450.072-5.228971493015469Clb=3.2m/s t=-57.8C h=4.6% 403.30MHz Type=RS41-SG Details on http://radiosondy.info
KERNO2-14U24209172022-12-07 00:09:4350.0732-5.2313991115309Clb=5.4m/s t=-58.4C h=4.8% 403.30MHz Type=RS41-SG Details on http://radiosondy.info
KERNO2-14U24209172022-12-07 00:09:4250.0733-5.232021011715236Clb=4.2m/s t=-58.1C h=4.8% 403.30MHz Type=RS41-SG Details on http://radiosondy.info
KERNO2-14U24209172022-12-07 00:09:4150.0736-5.232921221915165Clb=4.4m/s t=-57.5C h=4.7% 403.30MHz Type=RS41-SG TxPastBurst=8h30m batt=2.6V Details on http://radiosondy.info
KERNO2-14U24209172022-12-07 00:09:3850.0741-5.233771322615085Clb=5.3m/s t=-57.3C h=4.5% 403.30MHz Type=RS41-SG Details on http://radiosondy.info
M7CWL-14U24209172022-12-07 00:09:3450.0743-5.234141433115055Clb=5.5m/s t=-57.5C h=4.6% 403.30MHz Type=RS41-SG Details on http://radiosondy.info
KERNO2-14U24209172022-12-07 00:09:2350.0749-5.234851432815005Clb=3.9m/s t=-57.5C h=4.6% 403.30MHz Type=RS41-SG Details on http://radiosondy.info
M7CWL-14U24209172022-12-07 00:09:1450.0753-5.235171463014980Clb=4.3m/s t=-57.5C h=4.8% 403.30MHz Type=RS41-SG Details on http://radiosondy.info
KERNO2-14U24209172022-12-07 00:08:5650.0759-5.235831372014926Clb=3.9m/s t=-57.5C h=4.5% 403.30MHz Type=RS41-SG batt=2.6V Details on http://radiosondy.info
KERNO2-14U24209172022-12-07 00:08:3050.0765-5.236441762014849Clb=4.1m/s t=-57.7C h=4.6% 403.30MHz Type=RS41-SG Details on http://radiosondy.info
KERNO2-14U24209172022-12-07 00:08:0550.0774-5.23691652614772Clb=5.3m/s t=-57.2C h=4.5% 403.30MHz Type=RS41-SG Details on http://radiosondy.info
KERNO2-14U24209172022-12-07 00:07:3950.0783-5.237661533114692Clb=4.1m/s t=-57.3C h=4.5% 403.30MHz Type=RS41-SG batt=2.7V Details on http://radiosondy.info
KERNO2-14U24209172022-12-07 00:07:1250.0793-5.238881402614615Clb=3.7m/s t=-57.4C h=4.4% 403.30MHz Type=RS41-SG Details on http://radiosondy.info
KERNO2-14U24209172022-12-07 00:06:4650.08-5.239921282614541Clb=5.4m/s t=-58.0C h=4.7% 403.30MHz Type=RS41-SG Details on http://radiosondy.info
KERNO2-14U24209172022-12-07 00:06:1850.0806-5.241251333014464Clb=5.4m/s t=-57.6C h=4.5% 403.30MHz Type=RS41-SG TxPastBurst=8h30m batt=2.6V Details on http://radiosondy.info
KERNO2-14U24209172022-12-07 00:05:5150.0814-5.242531403114389Clb=3.7m/s t=-57.2C h=4.5% 403.30MHz Type=RS41-SG Details on http://radiosondy.info
M7CWL-14U24209172022-12-07 00:05:2850.0821-5.243531383514333Clb=5.0m/s t=-56.9C h=4.5% 403.30MHz Type=RS41-SG TxPastBurst=8h30m batt=2.7V Details on http://radiosondy.info
KERNO2-14U24209172022-12-07 00:05:2350.0823-5.243871363514315Clb=3.6m/s t=-56.8C h=4.5% 403.30MHz Type=RS41-SG Details on http://radiosondy.info
M7CWL-14U24209172022-12-07 00:05:0350.0831-5.244851323314263Clb=4.9m/s t=-56.7C h=4.5% 403.30MHz Type=RS41-SG Details on http://radiosondy.info
KERNO2-14U24209172022-12-07 00:04:5650.0834-5.245331383014239Clb=5.2m/s t=-56.7C h=4.5% 403.30MHz Type=RS41-SG batt=2.6V Details on http://radiosondy.info
M7CWL-14U24209172022-12-07 00:04:3950.084-5.246061422814194Clb=4.2m/s t=-56.3C h=4.4% 403.30MHz Type=RS41-SG Details on http://radiosondy.info
KERNO2-14U24209172022-12-07 00:04:3250.0843-5.246531322814167Clb=3.7m/s t=-56.6C h=4.5% 403.30MHz Type=RS41-SG Details on http://radiosondy.info
M7CWL-14U24209172022-12-07 00:04:1650.0848-5.247121403314130Clb=3.8m/s t=-56.7C h=4.5% 403.30MHz Type=RS41-SG batt=2.7V Details on http://radiosondy.info
KERNO2-14U24209172022-12-07 00:04:0450.0851-5.247681422814100Clb=4.7m/s t=-56.8C h=4.6% 403.30MHz Type=RS41-SG Details on http://radiosondy.info
KERNO2-14U24209172022-12-07 00:03:2050.0866-5.249361494413975Clb=3.0m/s t=-57.4C h=4.9% 403.30MHz Type=RS41-SG batt=2.7V Details on http://radiosondy.info
KERNO2-14U24209172022-12-07 00:02:2150.0892-5.254181085013782Clb=4.4m/s t=-56.3C h=4.7% 403.30MHz Type=RS41-SG Details on http://radiosondy.info
KERNO2-14U24209172022-12-07 00:01:5550.0902-5.256251174413685Clb=5.3m/s t=-56.7C h=4.8% 403.30MHz Type=RS41-SG Details on http://radiosondy.info
KERNO2-14U24209172022-12-07 00:01:2750.0906-5.258881033913606Clb=5.2m/s t=-56.6C h=4.8% 403.30MHz Type=RS41-SG TxPastBurst=8h30m batt=2.7V Details on http://radiosondy.info
KERNO2-14U24209172022-12-07 00:01:0250.0909-5.261091123913535Clb=5.3m/s t=-56.7C h=4.9% 403.30MHz Type=RS41-SG Details on http://radiosondy.info
KERNO2-14U24209172022-12-07 00:00:3350.0915-5.263341133313465Clb=4.9m/s t=-56.4C h=4.7% 403.30MHz Type=RS41-SG Details on http://radiosondy.info
M7CWL-14U24209172022-12-07 00:00:3250.0915-5.263341133713465Clb=4.9m/s t=-56.4C h=4.7% 403.30MHz Type=RS41-SG Details on http://radiosondy.info
M7CWL-14U24209172022-12-07 00:00:0750.0921-5.265251113113395Clb=4.0m/s t=-56.7C h=4.8% 403.30MHz Type=RS41-SG Details on http://radiosondy.info
KERNO2-14U24209172022-12-06 23:59:5050.0926-5.266891193013330Clb=4.1m/s t=-57.2C h=5.1% 403.30MHz Type=RS41-SG batt=2.7V Details on http://radiosondy.info
M7CWL-14U24209172022-12-06 23:59:4850.0927-5.267071213013322Clb=4.3m/s t=-57.2C h=5.1% 403.30MHz Type=RS41-SG batt=2.7V Details on http://radiosondy.info
M7CWL-14U24209172022-12-06 23:59:3950.0933-5.268591242813253Clb=4.6m/s t=-56.9C h=5.0% 403.30MHz Type=RS41-SG Details on http://radiosondy.info
KERNO2-14U24209172022-12-06 23:59:3850.0941-5.270791113113155Clb=3.5m/s t=-56.7C h=5.0% 403.30MHz Type=RS41-SG Details on http://radiosondy.info
KERNO2-14U24209172022-12-06 23:59:3750.0946-5.272541133013082Clb=5.1m/s t=-56.5C h=5.0% 403.30MHz Type=RS41-SG batt=2.7V Details on http://radiosondy.info
KERNO2-14U24209172022-12-06 23:59:3650.095-5.274291133113012Clb=4.2m/s t=-56.8C h=5.0% 403.30MHz Type=RS41-SG Details on http://radiosondy.info
KERNO2-14U24209172022-12-06 23:59:3550.0956-5.276031203112940Clb=4.6m/s t=-57.6C h=5.4% 403.30MHz Type=RS41-SG Details on http://radiosondy.info
KERNO2-14U24209172022-12-06 23:59:3450.0961-5.277751143112871Clb=5.6m/s t=-57.9C h=5.5% 403.30MHz Type=RS41-SG TxPastBurst=8h30m batt=2.6V Details on http://radiosondy.info
KERNO2-14U24209172022-12-06 23:59:3050.0967-5.279551153112801Clb=4.5m/s t=-58.0C h=5.6% 403.30MHz Type=RS41-SG Details on http://radiosondy.info
KERNO2-14U24209172022-12-06 23:59:2150.0973-5.281241222812731Clb=4.1m/s t=-57.8C h=5.5% 403.30MHz Type=RS41-SG Details on http://radiosondy.info
KERNO2-14U24209172022-12-06 23:59:0450.0979-5.282671173012664Clb=5.1m/s t=-57.3C h=5.4% 403.30MHz Type=RS41-SG batt=2.7V Details on http://radiosondy.info
M7CWL-14U24209172022-12-06 23:59:0350.0979-5.282671173112664Clb=5.1m/s t=-57.3C h=5.4% 403.30MHz Type=RS41-SG Details on http://radiosondy.info
M7CWL-14U24209172022-12-06 23:59:0050.0985-5.284141323012597Clb=5.6m/s t=-56.9C h=5.3% 403.30MHz Type=RS41-SG TxPastBurst=8h30m batt=2.7V Details on http://radiosondy.info
M7CWL-14U24209172022-12-06 23:58:5950.0998-5.287031363712461Clb=4.7m/s t=-56.4C h=5.3% 403.30MHz Type=RS41-SG Details on http://radiosondy.info
KERNO2-14U24209172022-12-06 23:58:5450.1005-5.289311044312353Clb=4.1m/s t=-56.3C h=5.4% 403.30MHz Type=RS41-SG Details on http://radiosondy.info
KERNO2-14U24209172022-12-06 23:58:3250.101-5.291811054112284Clb=5.2m/s t=-56.1C h=5.5% 403.30MHz Type=RS41-SG Details on http://radiosondy.info
KERNO2-14U24209172022-12-06 23:58:0650.1015-5.294181033912217Clb=4.4m/s t=-56.3C h=5.7% 403.30MHz Type=RS41-SG TxPastBurst=8h30m batt=2.7V Details on http://radiosondy.info
KERNO2-14U24209172022-12-06 23:57:4050.102-5.296551143912150Clb=2.8m/s t=-56.5C h=6.2% 403.30MHz Type=RS41-SG Details on http://radiosondy.info
KERNO2-14U24209172022-12-06 23:57:1050.1027-5.298661263712082Clb=3.6m/s t=-56.4C h=6.1% 403.30MHz Type=RS41-SG Details on http://radiosondy.info
KERNO2-14U24209172022-12-06 23:56:4250.1037-5.300381363912011Clb=3.1m/s t=-56.3C h=6.2% 403.30MHz Type=RS41-SG batt=2.7V Details on http://radiosondy.info
KERNO2-14U24209172022-12-06 23:56:1550.1049-5.301881513711947Clb=3.9m/s t=-56.5C h=6.7% 403.30MHz Type=RS41-SG Details on http://radiosondy.info
KERNO2-14U24209172022-12-06 23:55:5050.1061-5.3031313311872Clb=5.2m/s t=-56.8C h=7.8% 403.30MHz Type=RS41-SG Details on http://radiosondy.info
M7CWL-14U24209172022-12-06 23:55:4250.1064-5.303381513111852Clb=5.3m/s t=-56.8C h=7.9% 403.30MHz Type=RS41-SG batt=2.7V Details on http://radiosondy.info
KERNO2-14U24209172022-12-06 23:55:2350.1071-5.304191253311782Clb=3.4m/s t=-57.3C h=8.5% 403.30MHz Type=RS41-SG batt=2.7V Details on http://radiosondy.info
M7CWL-14U24209172022-12-06 23:55:1950.1072-5.304531153111768Clb=4.0m/s t=-57.3C h=8.5% 403.30MHz Type=RS41-SG Details on http://radiosondy.info
KERNO2-14U24209172022-12-06 23:54:5850.1077-5.305981143111708Clb=5.2m/s t=-57.4C h=9.1% 403.30MHz Type=RS41-SG Details on http://radiosondy.info
M7CWL-14U24209172022-12-06 23:54:5450.1078-5.306191203311699Clb=3.8m/s t=-57.3C h=9.0% 403.30MHz Type=RS41-SG Details on http://radiosondy.info
KERNO2-14U24209172022-12-06 23:54:3450.1085-5.307581383511637Clb=4.3m/s t=-56.9C h=9.3% 403.30MHz Type=RS41-SG Details on http://radiosondy.info
M7CWL-14U24209172022-12-06 23:54:3250.1086-5.307681382611632Clb=5.2m/s t=-56.9C h=9.4% 403.30MHz Type=RS41-SG batt=2.7V Details on http://radiosondy.info
KERNO2-14U24209172022-12-06 23:54:0850.1094-5.309171263511566Clb=4.4m/s t=-57.2C h=9.6% 403.30MHz Type=RS41-SG TxPastBurst=8h30m batt=2.7V Details on http://radiosondy.info
KERNO2-14U24209172022-12-06 23:53:4350.1103-5.310831423511491Clb=3.9m/s t=-57.4C h=9.5% 403.30MHz Type=RS41-SG Details on http://radiosondy.info
KERNO2-14U24209172022-12-06 23:53:1750.1114-5.312241442811420Clb=4.2m/s t=-57.8C h=10.2% 403.30MHz Type=RS41-SG Details on http://radiosondy.info
KERNO2-14U24209172022-12-06 23:52:5150.1123-5.31341353011350Clb=4.6m/s t=-57.5C h=9.3% 403.30MHz Type=RS41-SG batt=2.7V Details on http://radiosondy.info
KERNO2-14U24209172022-12-06 23:52:2450.113-5.314861383011275Clb=3.5m/s t=-57.1C h=9.0% 403.30MHz Type=RS41-SG Details on http://radiosondy.info
KERNO2-14U24209172022-12-06 23:51:5850.1137-5.316231362211195Clb=4.2m/s t=-56.9C h=9.2% 403.30MHz Type=RS41-SG Details on http://radiosondy.info
KERNO2-14U24209172022-12-06 23:51:4050.1144-5.317131552011111Clb=4.8m/s t=-56.3C h=9.2% 403.30MHz Type=RS41-SG batt=2.7V Details on http://radiosondy.info
M7CWL-14U24209172022-12-06 23:51:2750.1153-5.317931672411003Clb=4.1m/s t=-55.6C h=9.8% 403.30MHz Type=RS41-SG Details on http://radiosondy.info
KERNO2-14U24209172022-12-06 23:51:2650.1159-5.318341502610948Clb=3.1m/s t=-55.3C h=10.4% 403.30MHz Type=RS41-SG Details on http://radiosondy.info
M7CWL-14U24209172022-12-06 23:51:2450.1162-5.31851622610927Clb=4.3m/s t=-55.6C h=11.1% 403.30MHz Type=RS41-SG Details on http://radiosondy.info
KERNO2-14U24209172022-12-06 23:51:1350.117-5.318751753010872Clb=4.9m/s t=-55.6C h=11.9% 403.30MHz Type=RS41-SG TxPastBurst=8h30m batt=2.7V Details on http://radiosondy.info
M7CWL-14U24209172022-12-06 23:51:1050.1171-5.318771723010862Clb=4.8m/s t=-55.6C h=11.8% 403.30MHz Type=RS41-SG TxPastBurst=8h30m batt=2.7V Details on http://radiosondy.info
KERNO2-14U24209172022-12-06 23:51:0150.1181-5.318711833110803Clb=5.1m/s t=-55.2C h=10.5% 403.30MHz Type=RS41-SG Details on http://radiosondy.info
KERNO2-14U24209172022-12-06 23:50:5650.1205-5.318891232410658Clb=4.6m/s t=-55.3C h=11.2% 403.30MHz Type=RS41-SG batt=2.7V Details on http://radiosondy.info
KERNO2-14U24209172022-12-06 23:50:5550.1214-5.319231672410554Clb=3.7m/s t=-54.5C h=10.3% 403.30MHz Type=RS41-SG Details on http://radiosondy.info
KERNO2-14U24209172022-12-06 23:50:5450.1222-5.321372610483Clb=3.6m/s t=-55.3C h=12.2% 403.30MHz Type=RS41-SG Details on http://radiosondy.info
KERNO2-14U24209172022-12-06 23:50:5350.1231-5.320751532010413Clb=4.9m/s t=-54.8C h=11.9% 403.30MHz Type=RS41-SG batt=2.7V Details on http://radiosondy.info
KERNO2-14U24209172022-12-06 23:50:5250.1238-5.321471422010345Clb=4.0m/s t=-55.3C h=12.5% 403.30MHz Type=RS41-SG Details on http://radiosondy.info
KERNO2-14U24209172022-12-06 23:50:5150.1244-5.32221232610279Clb=3.9m/s t=-55.4C h=14.5% 403.30MHz Type=RS41-SG Details on http://radiosondy.info
KERNO2-14U24209172022-12-06 23:50:4350.1254-5.322941593310200Clb=4.2m/s t=-55.1C h=14.6% 403.30MHz Type=RS41-SG TxPastBurst=8h30m batt=2.7V Details on http://radiosondy.info
M7CWL-14U24209172022-12-06 23:50:3550.1259-5.323271623710166Clb=4.0m/s t=-55.1C h=14.8% 403.30MHz Type=RS41-SG Details on http://radiosondy.info
KERNO2-14U24209172022-12-06 23:50:2650.1267-5.323631653710131Clb=3.6m/s t=-54.9C h=14.7% 403.30MHz Type=RS41-SG Details on http://radiosondy.info
M7CWL-14U24209172022-12-06 23:50:1550.1273-5.323881633910099Clb=4.2m/s t=-54.8C h=14.8% 403.30MHz Type=RS41-SG batt=2.7V Details on http://radiosondy.info
KERNO2-14U24209172022-12-06 23:50:0050.1281-5.324341613710060Clb=4.0m/s t=-54.6C h=14.6% 403.30MHz Type=RS41-SG Details on http://radiosondy.info
M7CWL-14U24209172022-12-06 23:49:5050.1286-5.324631653510032Clb=4.8m/s t=-54.5C h=14.7% 403.30MHz Type=RS41-SG Details on http://radiosondy.info
KERNO2-14U24209172022-12-06 23:49:3650.1294-5.32512157319989Clb=4.7m/s t=-54.1C h=13.9% 403.30MHz Type=RS41-SG batt=2.7V Details on http://radiosondy.info
M7CWL-14U24209172022-12-06 23:49:2950.1298-5.32533159229968Clb=2.6m/s t=-53.9C h=13.7% 403.30MHz Type=RS41-SG Details on http://radiosondy.info
KERNO2-14U24209172022-12-06 23:49:1150.1306-5.32578156289918Clb=2.8m/s t=-53.8C h=13.6% 403.30MHz Type=RS41-SG Details on http://radiosondy.info
KERNO2-14U24209172022-12-06 23:48:4350.1318-5.32664157309836Clb=4.5m/s t=-53.1C h=13.0% 403.30MHz Type=RS41-SG Details on http://radiosondy.info
KERNO2-14U24209172022-12-06 23:48:1850.1328-5.32752155249771Clb=2.8m/s t=-52.8C h=13.6% 403.30MHz Type=RS41-SG batt=2.7V Details on http://radiosondy.info
KERNO2-14U24209172022-12-06 23:47:5850.1336-5.32817131249688Clb=6.2m/s t=-52.4C h=13.7% 403.30MHz Type=RS41-SG Details on http://radiosondy.info
KERNO2-14U24209172022-12-06 23:47:3450.1344-5.32907139209598Clb=4.9m/s t=-51.9C h=15.5% 403.30MHz Type=RS41-SG Details on http://radiosondy.info
KERNO2-14U24209172022-12-06 23:47:0750.135-5.32974147159526Clb=4.0m/s t=-51.6C h=17.3% 403.30MHz Type=RS41-SG TxPastBurst=8h30m batt=2.7V Details on http://radiosondy.info
KERNO2-14U24209172022-12-06 23:46:4150.1355-5.33027155159459Clb=5.1m/s t=-51.3C h=18.3% 403.30MHz Type=RS41-SG Details on http://radiosondy.info
KERNO2-14U24209172022-12-06 23:46:1450.1361-5.33055166199393Clb=4.1m/s t=-50.8C h=15.5% 403.30MHz Type=RS41-SG Details on http://radiosondy.info
M7CWL-14U24209172022-12-06 23:45:5850.1366-5.3308154209350Clb=4.1m/s t=-50.6C h=14.8% 403.30MHz Type=RS41-SG batt=2.7V Details on http://radiosondy.info
KERNO2-14U24209172022-12-06 23:45:4750.1369-5.33104139229317Clb=4.5m/s t=-50.4C h=15.0% 403.30MHz Type=RS41-SG batt=2.7V Details on http://radiosondy.info
M7CWL-14U24209172022-12-06 23:45:3650.1373-5.33139156289286Clb=3.6m/s t=-50.2C h=15.5% 403.30MHz Type=RS41-SG Details on http://radiosondy.info
KERNO2-14U24209172022-12-06 23:45:2150.1377-5.33145145339240Clb=6.9m/s t=-50.2C h=14.5% 403.30MHz Type=RS41-SG Details on http://radiosondy.info
M7CWL-14U24209172022-12-06 23:45:1150.1381-5.33155198339199Clb=5.4m/s t=-50.2C h=14.6% 403.30MHz Type=RS41-SG Details on http://radiosondy.info
KERNO2-14U24209172022-12-06 23:44:5650.1389-5.33212174289134Clb=5.9m/s t=-50.0C h=14.1% 403.30MHz Type=RS41-SG Details on http://radiosondy.info
M7CWL-14U24209172022-12-06 23:44:4950.1393-5.33218164249100Clb=8.3m/s t=-50.0C h=13.2% 403.30MHz Type=RS41-SG TxPastBurst=8h30m batt=2.7V Details on http://radiosondy.info
KERNO2-14U24209172022-12-06 23:44:3450.1398-5.33268162209038Clb=3.6m/s t=-49.6C h=14.1% 403.30MHz Type=RS41-SG batt=2.7V Details on http://radiosondy.info
KERNO2-14U24209172022-12-06 23:44:0950.1406-5.33329147248964Clb=3.4m/s t=-49.2C h=15.1% 403.30MHz Type=RS41-SG Details on http://radiosondy.info
KERNO2-14U24209172022-12-06 23:43:5050.1413-5.33416137228894Clb=5.0m/s t=-48.9C h=13.4% 403.30MHz Type=RS41-SG Details on http://radiosondy.info
KERNO2-14U24209172022-12-06 23:43:3450.1422-5.33474165178811Clb=6.4m/s t=-48.4C h=13.2% 403.30MHz Type=RS41-SG TxPastBurst=8h30m batt=2.7V Details on http://radiosondy.info
KERNO2-14U24209172022-12-06 23:43:2850.1428-5.33514150138724Clb=4.9m/s t=-47.9C h=14.4% 403.30MHz Type=RS41-SG Details on http://radiosondy.info
KERNO2-14U24209172022-12-06 23:43:2150.1433-5.33551164158656Clb=3.8m/s t=-47.4C h=13.4% 403.30MHz Type=RS41-SG Details on http://radiosondy.info
KERNO2-14U24209172022-12-06 23:43:0650.1438-5.33581173118591Clb=2.5m/s t=-47.0C h=15.5% 403.30MHz Type=RS41-SG batt=2.7V Details on http://radiosondy.info
M7CWL-14U24209172022-12-06 23:43:0050.1448-5.33689129308459Clb=3.4m/s t=-46.5C h=16.1% 403.30MHz Type=RS41-SG Details on http://radiosondy.info
M7CWL-14U24209172022-12-06 23:42:5850.1454-5.33829154178388Clb=5.4m/s t=-45.9C h=12.9% 403.30MHz Type=RS41-SG Details on http://radiosondy.info
KERNO2-14U24209172022-12-06 23:42:5450.1455-5.33827194208363Clb=6.5m/s t=-45.7C h=12.2% 403.30MHz Type=RS41-SG batt=2.7V Details on http://radiosondy.info
M7CWL-14U24209172022-12-06 23:42:4150.1459-5.33827159248288Clb=6.9m/s t=-45.4C h=9.8% 403.30MHz Type=RS41-SG batt=2.7V Details on http://radiosondy.info
KERNO2-14U24209172022-12-06 23:42:3450.1462-5.33836168248254Clb=4.9m/s t=-45.1C h=10.1% 403.30MHz Type=RS41-SG Details on http://radiosondy.info
M7CWL-14U24209172022-12-06 23:42:1750.1468-5.33855173268214Clb=3.0m/s t=-44.8C h=11.2% 403.30MHz Type=RS41-SG Details on http://radiosondy.info
KERNO2-14U24209172022-12-06 23:42:0850.1471-5.33868168308190Clb=3.4m/s t=-44.8C h=13.3% 403.30MHz Type=RS41-SG Details on http://radiosondy.info
KERNO2-14U24209172022-12-06 23:41:4550.1481-5.33923156228113Clb=3.9m/s t=-44.2C h=16.1% 403.30MHz Type=RS41-SG TxPastBurst=8h30m batt=2.7V Details on http://radiosondy.info
KERNO2-14U24209172022-12-06 23:41:2050.149-5.33989166248026Clb=5.0m/s t=-43.5C h=14.9% 403.30MHz Type=RS41-SG Details on http://radiosondy.info
KERNO2-14U24209172022-12-06 23:40:5550.1498-5.34035157247950Clb=4.3m/s t=-42.9C h=13.0% 403.30MHz Type=RS41-SG Details on http://radiosondy.info
KERNO2-14U24209172022-12-06 23:40:3150.1507-5.34099165307855Clb=5.6m/s t=-42.1C h=11.1% 403.30MHz Type=RS41-SG batt=2.7V Details on http://radiosondy.info
KERNO2-14U24209172022-12-06 23:40:0850.1519-5.3414168307786Clb=5.0m/s t=-41.5C h=10.4% 403.30MHz Type=RS41-SG Details on http://radiosondy.info
KERNO2-14U24209172022-12-06 23:39:5050.153-5.34168171307721Clb=2.9m/s t=-40.9C h=10.7% 403.30MHz Type=RS41-SG Details on http://radiosondy.info
KERNO2-14U24209172022-12-06 23:39:3450.1542-5.34219188287654Clb=5.1m/s t=-40.3C h=15.8% 403.30MHz Type=RS41-SG batt=2.7V Details on http://radiosondy.info
KERNO2-14U24209172022-12-06 23:39:1850.1552-5.34265157287548Clb=5.2m/s t=-39.8C h=22.6% 403.30MHz Type=RS41-SG Details on http://radiosondy.info
M7CWL-14U24209172022-12-06 23:39:0450.1562-5.34318156287484Clb=6.3m/s t=-39.5C h=27.5% 403.30MHz Type=RS41-SG batt=2.7V Details on http://radiosondy.info
KERNO2-14U24209172022-12-06 23:39:0350.1563-5.34323150287479Clb=4.6m/s t=-39.5C h=27.9% 403.30MHz Type=RS41-SG Details on http://radiosondy.info
M7CWL-14U24209172022-12-06 23:38:4850.1572-5.34375162317415Clb=5.8m/s t=-39.4C h=32.5% 403.30MHz Type=RS41-SG Details on http://radiosondy.info
KERNO2-14U24209172022-12-06 23:38:4650.1573-5.34381160337406Clb=4.5m/s t=-39.3C h=32.9% 403.30MHz Type=RS41-SG TxPastBurst=8h30m batt=2.7V Details on http://radiosondy.info
M7CWL-14U24209172022-12-06 23:38:3350.1583-5.3444175307359Clb=3.3m/s t=-39.1C h=36.8% 403.30MHz Type=RS41-SG Details on http://radiosondy.info
KERNO2-14U24209172022-12-06 23:38:3050.1586-5.34446170267348Clb=4.2m/s t=-39.0C h=36.1% 403.30MHz Type=RS41-SG Details on http://radiosondy.info
KERNO2-14U24209172022-12-06 23:38:1550.1606-5.34597165287176Clb=3.9m/s t=-37.8C h=42.3% 403.30MHz Type=RS41-SG batt=2.7V Details on http://radiosondy.info
KERNO2-14U24209172022-12-06 23:38:1450.1617-5.34642154307091Clb=4.4m/s t=-37.1C h=34.1% 403.30MHz Type=RS41-SG Details on http://radiosondy.info
KERNO2-14U24209172022-12-06 23:38:0250.1628-5.3471159267025Clb=5.2m/s t=-36.5C h=29.8% 403.30MHz Type=RS41-SG Details on http://radiosondy.info
KERNO2-14U24209172022-12-06 23:37:3950.1638-5.34745166356943Clb=8.9m/s t=-35.7C h=18.5% 403.30MHz Type=RS41-SG batt=2.9V Details on http://radiosondy.info
KERNO2-14U24209172022-12-06 23:37:1350.1651-5.34827156356861Clb=3.8m/s t=-35.0C h=17.3% 403.30MHz Type=RS41-SG Details on http://radiosondy.info
KERNO2-14U24209172022-12-06 23:36:4950.1663-5.34942160286781Clb=8.0m/s t=-34.4C h=17.1% 403.30MHz Type=RS41-SG Details on http://radiosondy.info
KERNO2-14U24209172022-12-06 23:36:2550.1673-5.35015161286702Clb=5.1m/s t=-33.8C h=18.8% 403.30MHz Type=RS41-SG TxPastBurst=8h30m batt=2.9V Details on http://radiosondy.info
M7CWL-14U24209172022-12-06 23:36:2250.1675-5.35023169266692Clb=3.8m/s t=-33.7C h=19.3% 403.30MHz Type=RS41-SG TxPastBurst=8h30m batt=2.9V Details on http://radiosondy.info
KERNO2-14U24209172022-12-06 23:36:0550.1683-5.35059129336620Clb=7.2m/s t=-33.2C h=26.2% 403.30MHz Type=RS41-SG Details on http://radiosondy.info
M7CWL-14U24209172022-12-06 23:36:0350.1683-5.35068129356613Clb=6.2m/s t=-33.2C h=26.1% 403.30MHz Type=RS41-SG Details on http://radiosondy.info
KERNO2-14U24209172022-12-06 23:35:4850.1695-5.35151156316533Clb=4.7m/s t=-32.4C h=24.5% 403.30MHz Type=RS41-SG Details on http://radiosondy.info
M7CWL-14U24209172022-12-06 23:35:3350.1705-5.3523153246468Clb=3.5m/s t=-32.0C h=29.4% 403.30MHz Type=RS41-SG batt=2.9V Details on http://radiosondy.info
KERNO2-14U24209172022-12-06 23:35:3250.1706-5.35234142266465Clb=3.8m/s t=-32.0C h=29.7% 403.30MHz Type=RS41-SG batt=2.9V Details on http://radiosondy.info
KERNO2-14U24209172022-12-06 23:35:1650.1714-5.35324138286376Clb=6.0m/s t=-31.5C h=38.7% 403.30MHz Type=RS41-SG Details on http://radiosondy.info
KERNO2-14U24209172022-12-06 23:35:0050.1723-5.35406139196278Clb=4.5m/s t=-30.7C h=22.7% 403.30MHz Type=RS41-SG Details on http://radiosondy.info
KERNO2-14U24209172022-12-06 23:34:4450.173-5.35463159226193Clb=6.2m/s t=-30.1C h=23.1% 403.30MHz Type=RS41-SG batt=2.9V Details on http://radiosondy.info
KERNO2-14U24209172022-12-06 23:34:2450.1739-5.35546167266092Clb=6.6m/s t=-29.2C h=25.6% 403.30MHz Type=RS41-SG Details on http://radiosondy.info
KERNO2-14U24209172022-12-06 23:34:0950.1746-5.35636155206004Clb=4.1m/s t=-28.5C h=24.8% 403.30MHz Type=RS41-SG Details on http://radiosondy.info
KERNO2-14U24209172022-12-06 23:33:5250.1753-5.35722117225924Clb=5.0m/s t=-27.9C h=26.8% 403.30MHz Type=RS41-SG TxPastBurst=8h30m batt=2.7V Details on http://radiosondy.info
KERNO2-14U24209172022-12-06 23:33:4950.1759-5.3579171245837Clb=3.9m/s t=-27.2C h=24.9% 403.30MHz Type=RS41-SG Details on http://radiosondy.info
KERNO2-14U24209172022-12-06 23:33:4450.1768-5.35854118225748Clb=6.4m/s t=-26.3C h=21.8% 403.30MHz Type=RS41-SG Details on http://radiosondy.info
M7CWL-14U24209172022-12-06 23:33:4350.1768-5.35863119225742Clb=6.5m/s t=-26.3C h=20.7% 403.30MHz Type=RS41-SG Details on http://radiosondy.info
KERNO2-14U24209172022-12-06 23:33:2750.1774-5.35932125315659Clb=4.1m/s t=-25.5C h=10.2% 403.30MHz Type=RS41-SG batt=2.7V Details on http://radiosondy.info
M7CWL-14U24209172022-12-06 23:33:0650.1782-5.36061141225585Clb=6.9m/s t=-25.6C h=31.4% 403.30MHz Type=RS41-SG batt=2.9V Details on http://radiosondy.info
KERNO2-14U24209172022-12-06 23:33:0450.1783-5.36067148245578Clb=7.7m/s t=-25.6C h=26.7% 403.30MHz Type=RS41-SG Details on http://radiosondy.info
M7CWL-14U24209172022-12-06 23:32:4650.179-5.36096170285504Clb=5.0m/s t=-25.1C h=9.7% 403.30MHz Type=RS41-SG Details on http://radiosondy.info
KERNO2-14U24209172022-12-06 23:32:4450.1791-5.36102154225495Clb=4.8m/s t=-25.0C h=9.6% 403.30MHz Type=RS41-SG Details on http://radiosondy.info
KERNO2-14U24209172022-12-06 23:32:2050.18-5.36107206195402Clb=4.6m/s t=-24.1C h=9.4% 403.30MHz Type=RS41-SG batt=2.9V Details on http://radiosondy.info
KERNO2-14U24209172022-12-06 23:32:0050.1807-5.36097140335303Clb=5.0m/s t=-23.2C h=15.0% 403.30MHz Type=RS41-SG Details on http://radiosondy.info
KERNO2-14U24209172022-12-06 23:31:4450.1819-5.36151159285220Clb=5.8m/s t=-22.5C h=23.0% 403.30MHz Type=RS41-SG Details on http://radiosondy.info
KERNO2-14U24209172022-12-06 23:31:2850.183-5.3616177225137Clb=5.0m/s t=-21.8C h=17.8% 403.30MHz Type=RS41-SG TxPastBurst=8h30m batt=2.9V Details on http://radiosondy.info
KERNO2-14U24209172022-12-06 23:31:1250.1838-5.36174171205060Clb=4.7m/s t=-21.3C h=22.4% 403.30MHz Type=RS41-SG Details on http://radiosondy.info
KERNO2-14U24209172022-12-06 23:30:5650.1845-5.36217169284972Clb=5.7m/s t=-20.7C h=24.3% 403.30MHz Type=RS41-SG Details on http://radiosondy.info
KERNO2-14U24209172022-12-06 23:30:4050.1856-5.36266181314903Clb=5.9m/s t=-20.0C h=20.5% 403.30MHz Type=RS41-SG batt=2.9V Details on http://radiosondy.info
KERNO2-14U24209172022-12-06 23:30:2450.1868-5.36293155284801Clb=8.0m/s t=-19.2C h=13.3% 403.30MHz Type=RS41-SG Details on http://radiosondy.info
KERNO2-14U24209172022-12-06 23:30:0950.1878-5.36342159264720Clb=5.1m/s t=-18.4C h=13.1% 403.30MHz Type=RS41-SG Details on http://radiosondy.info
KERNO2-14U24209172022-12-06 23:29:5250.1887-5.36393202114636Clb=4.4m/s t=-17.9C h=8.4% 403.30MHz Type=RS41-SG batt=2.9V Details on http://radiosondy.info
M7CWL-14U24209172022-12-06 23:29:5050.1888-5.36391187134627Clb=5.6m/s t=-17.8C h=8.3% 403.30MHz Type=RS41-SG Details on http://radiosondy.info
KERNO2-14U24209172022-12-06 23:29:3650.1892-5.36415177194560Clb=6.0m/s t=-17.2C h=7.5% 403.30MHz Type=RS41-SG Details on http://radiosondy.info
M7CWL-14U24209172022-12-06 23:29:3550.1892-5.36415178224553Clb=6.7m/s t=-17.1C h=7.5% 403.30MHz Type=RS41-SG Details on http://radiosondy.info
KERNO2-14U24209172022-12-06 23:29:2450.1898-5.36433145204461Clb=6.2m/s t=-16.6C h=6.7% 403.30MHz Type=RS41-SG Details on http://radiosondy.info
KERNO2-14U24209172022-12-06 23:29:1750.1905-5.36477186194388Clb=4.0m/s t=-16.3C h=5.9% 403.30MHz Type=RS41-SG TxPastBurst=8h30m batt=2.9V Details on http://radiosondy.info
KERNO2-14U24209172022-12-06 23:28:5750.1911-5.36505214224285Clb=5.7m/s t=-15.5C h=5.1% 403.30MHz Type=RS41-SG Details on http://radiosondy.info
KERNO2-14U24209172022-12-06 23:28:3950.192-5.36503155224207Clb=6.8m/s t=-15.2C h=8.0% 403.30MHz Type=RS41-SG Details on http://radiosondy.info
KERNO2-14U24209172022-12-06 23:28:1950.1928-5.36499153224122Clb=4.7m/s t=-14.6C h=8.9% 403.30MHz Type=RS41-SG batt=2.7V Details on http://radiosondy.info
KERNO2-14U24209172022-12-06 23:28:0050.1936-5.3649226174036Clb=4.1m/s t=-13.8C h=9.5% 403.30MHz Type=RS41-SG Details on http://radiosondy.info
KERNO2-14U24209172022-12-06 23:27:4450.1941-5.36463150153959Clb=4.5m/s t=-13.2C h=8.6% 403.30MHz Type=RS41-SG Details on http://radiosondy.info
KERNO2-14U24209172022-12-06 23:27:2850.1946-5.36411222263881Clb=4.7m/s t=-12.7C h=9.4% 403.30MHz Type=RS41-SG batt=2.9V Details on http://radiosondy.info
M7CWL-14U24209172022-12-06 23:27:2250.1949-5.36377198263851Clb=6.8m/s t=-12.5C h=11.5% 403.30MHz Type=RS41-SG batt=2.7V Details on http://radiosondy.info
KERNO2-14U24209172022-12-06 23:27:1250.1955-5.36344219203790Clb=6.1m/s t=-12.3C h=23.0% 403.30MHz Type=RS41-SG Details on http://radiosondy.info
M7CWL-14U24209172022-12-06 23:27:0750.1957-5.36333163173762Clb=6.6m/s t=-12.2C h=27.4% 403.30MHz Type=RS41-SG Details on http://radiosondy.info
KERNO2-14U24209172022-12-06 23:26:5750.1961-5.36311182243704Clb=4.7m/s t=-11.8C h=28.9% 403.30MHz Type=RS41-SG Details on http://radiosondy.info
M7CWL-14U24209172022-12-06 23:26:5250.1963-5.3632168283685Clb=4.5m/s t=-11.6C h=29.1% 403.30MHz Type=RS41-SG Details on http://radiosondy.info
KERNO2-14U24209172022-12-06 23:26:4050.197-5.36288214263631Clb=4.9m/s t=-11.2C h=28.1% 403.30MHz Type=RS41-SG TxPastBurst=8h30m batt=2.9V Details on http://radiosondy.info
M7CWL-14U24209172022-12-06 23:26:3750.1972-5.36275207193616Clb=6.4m/s t=-11.0C h=28.0% 403.30MHz Type=RS41-SG batt=2.9V Details on http://radiosondy.info
KERNO2-14U24209172022-12-06 23:26:2450.1979-5.36241149283550Clb=6.3m/s t=-10.8C h=25.1% 403.30MHz Type=RS41-SG Details on http://radiosondy.info
KERNO2-14U24209172022-12-06 23:26:0850.1991-5.36245186223456Clb=5.5m/s t=-10.8C h=32.9% 403.30MHz Type=RS41-SG Details on http://radiosondy.info
KERNO2-14U24209172022-12-06 23:25:5250.1999-5.36287184203369Clb=4.7m/s t=-10.4C h=34.5% 403.30MHz Type=RS41-SG batt=2.7V Details on http://radiosondy.info
KERNO2-14U24209172022-12-06 23:25:3750.2005-5.3631223193277Clb=5.3m/s t=-9.7C h=22.9% 403.30MHz Type=RS41-SG Details on http://radiosondy.info
KERNO2-14U24209172022-12-06 23:25:2050.2007-5.36339133203193Clb=5.5m/s t=-9.1C h=15.7% 403.30MHz Type=RS41-SG Details on http://radiosondy.info
KERNO2-14U24209172022-12-06 23:25:1150.2014-5.36293234133117Clb=4.5m/s t=-8.7C h=18.1% 403.30MHz Type=RS41-SG batt=2.9V Details on http://radiosondy.info
KERNO2-14U24209172022-12-06 23:24:5650.2018-5.36288250193043Clb=4.8m/s t=-8.2C h=6.2% 403.30MHz Type=RS41-SG Details on http://radiosondy.info
KERNO2-14U24209172022-12-06 23:24:3250.2027-5.36225215152932Clb=5.3m/s t=-7.3C h=7.5% 403.30MHz Type=RS41-SG Details on http://radiosondy.info
M7CWL-14U24209172022-12-06 23:24:1950.2031-5.3619233202876Clb=5.7m/s t=-7.0C h=7.7% 403.30MHz Type=RS41-SG Details on http://radiosondy.info
KERNO2-14U24209172022-12-06 23:24:1450.2032-5.36179187202849Clb=5.4m/s t=-6.8C h=7.5% 403.30MHz Type=RS41-SG TxPastBurst=8h30m batt=2.9V Details on http://radiosondy.info
KERNO2-14U24209172022-12-06 23:23:5650.2039-5.36126180222775Clb=4.0m/s t=-6.2C h=8.1% 403.30MHz Type=RS41-SG Details on http://radiosondy.info
KERNO2-14U24209172022-12-06 23:23:4050.2047-5.36075204282702Clb=5.7m/s t=-5.6C h=8.5% 403.30MHz Type=RS41-SG Details on http://radiosondy.info
M7CWL-14U24209172022-12-06 23:23:3250.2052-5.36014230222664Clb=4.1m/s t=-5.3C h=9.6% 403.30MHz Type=RS41-SG Details on http://radiosondy.info
KERNO2-14U24209172022-12-06 23:23:2450.2055-5.35957230172630Clb=4.4m/s t=-5.2C h=10.0% 403.30MHz Type=RS41-SG batt=2.9V Details on http://radiosondy.info
KERNO2-14U24209172022-12-06 23:23:0850.2061-5.35934228172558Clb=4.7m/s t=-5.5C h=28.6% 403.30MHz Type=RS41-SG Details on http://radiosondy.info
KERNO2-14U24209172022-12-06 23:22:5250.2065-5.35875190202488Clb=4.5m/s t=-5.5C h=33.5% 403.30MHz Type=RS41-SG Details on http://radiosondy.info
KERNO2-14U24209172022-12-06 23:22:3650.207-5.35776249262406Clb=6.1m/s t=-4.9C h=28.1% 403.30MHz Type=RS41-SG batt=2.9V Details on http://radiosondy.info
KERNO2-14U24209172022-12-06 23:22:2050.2076-5.35678249192328Clb=5.0m/s t=-4.3C h=29.9% 403.30MHz Type=RS41-SG Details on http://radiosondy.info
KERNO2-14U24209172022-12-06 23:22:0450.208-5.35596248172239Clb=4.1m/s t=-3.5C h=31.3% 403.30MHz Type=RS41-SG Details on http://radiosondy.info
KERNO2-14U24209172022-12-06 23:21:4850.2083-5.35503217262164Clb=5.5m/s t=-2.9C h=29.2% 403.30MHz Type=RS41-SG TxPastBurst=8h30m batt=2.9V Details on http://radiosondy.info
KERNO2-14U24209172022-12-06 23:21:3250.2089-5.35385215222063Clb=6.6m/s t=-2.6C h=25.6% 403.30MHz Type=RS41-SG Details on http://radiosondy.info
M7CWL-14U24209172022-12-06 23:21:1750.2094-5.35286231191966Clb=3.2m/s t=-2.2C h=34.3% 403.30MHz Type=RS41-SG Details on http://radiosondy.info
KERNO2-14U24209172022-12-06 23:21:1650.2095-5.35278226201962Clb=4.5m/s t=-2.2C h=33.8% 403.30MHz Type=RS41-SG Details on http://radiosondy.info
M7CWL-14U24209172022-12-06 23:21:0250.2099-5.35216261241893Clb=5.3m/s t=-1.9C h=28.7% 403.30MHz Type=RS41-SG batt=2.9V Details on http://radiosondy.info
KERNO2-14U24209172022-12-06 23:21:0050.2099-5.35194262261881Clb=7.7m/s t=-1.8C 403.30MHz Type=RS41-SG batt=2.9V Details on http://radiosondy.info
M7CWL-14U24209172022-12-06 23:20:4950.2103-5.35087240301812Clb=4.0m/s t=-1.7C h=27.6% 403.30MHz Type=RS41-SG Details on http://radiosondy.info
KERNO2-14U24209172022-12-06 23:20:4650.2104-5.35051253301799Clb=5.7m/s calibration 86% 403.30MHz Type=RS41-SG Details on http://radiosondy.info
M7CWL-14U24209172022-12-06 23:20:3450.2106-5.34927254201737Clb=4.6m/s t=-1.6C h=25.1% 403.30MHz Type=RS41-SG Details on http://radiosondy.info
KERNO2-14U24209172022-12-06 23:20:2950.2106-5.3487266301721Clb=4.3m/s calibration 76% 403.30MHz Type=RS41-SG Details on http://radiosondy.info
KERNO2-14U24209172022-12-06 23:20:1350.2109-5.34699232301633Clb=5.1m/s calibration 60% 403.30MHz Type=RS41 batt=2.9V Details on http://radiosondy.info
KERNO2-14U24209172022-12-06 23:19:5650.2115-5.34534261311552Clb=4.2m/s calibration 45% 403.30MHz Type=RS41 Details on http://radiosondy.info
KERNO2-14U24209172022-12-06 23:19:4050.2121-5.34358241331484Clb=4.2m/s calibration 29% 403.30MHz Type=RS41 Details on http://radiosondy.info
KERNO2-14U24209172022-12-06 23:19:2450.2127-5.34193250221398Clb=5.0m/s calibration 13% 403.30MHz Type=RS41 batt=2.9V Details on http://radiosondy.info
M7CWL-14U24209172022-12-06 23:18:1950.2133-5.33914125131036Clb=5.4m/s t=-1.1C calibration 96% 403.30MHz Type=RS41-SG batt=2.9V Details on http://radiosondy.info
M7CWL-14U24209172022-12-06 23:18:0450.2136-5.3395511911970Clb=5.7m/s calibration 66% Type=RS41-SG Details on http://radiosondy.info
M7CWL-14U24209172022-12-06 23:17:4950.214-5.339622911884Clb=6.6m/s calibration 37% Type=RS41-SG Details on http://radiosondy.info
M7CWL-14U24209172022-12-06 23:17:3450.2143-5.3392123524803Clb=4.2m/s calibration 7% Type=RS41 batt=2.9V Details on http://radiosondy.info